<?xml version='1.0' encoding='UTF-8'?><gpx version="1.1" creator="JPX - https://github.com/jenetics/jpx" xmlns="http://www.topografix.com/GPX/1/1"><trk><trkseg><trkpt lat="45.1675717" lon="8.813955"><ele>97.0</ele><time>2026-04-03T10:13:24.276Z</time></trkpt><trkpt lat="45.1675033" lon="8.8139333"><ele>97.0</ele><time>2026-04-03T10:13:26.277Z</time></trkpt><trkpt lat="45.1674383" lon="8.813915"><ele>97.0</ele><time>2026-04-03T10:13:28.276Z</time></trkpt><trkpt lat="45.16737" lon="8.8139"><ele>97.0</ele><time>2026-04-03T10:13:30.277Z</time></trkpt><trkpt lat="45.1673067" lon="8.813885"><ele>97.0</ele><time>2026-04-03T10:13:32.276Z</time></trkpt><trkpt lat="45.1672467" lon="8.8138567"><ele>97.0</ele><time>2026-04-03T10:13:34.277Z</time></trkpt><trkpt lat="45.1671867" lon="8.8138233"><ele>97.0</ele><time>2026-04-03T10:13:36.277Z</time></trkpt><trkpt lat="45.1671283" lon="8.813785"><ele>97.16666666666667</ele><time>2026-04-03T10:13:38.277Z</time></trkpt><trkpt lat="45.1670317" lon="8.8137167"><ele>97.33333333333334</ele><time>2026-04-03T10:13:41.276Z</time></trkpt><trkpt lat="45.1669633" lon="8.8136583"><ele>97.5</ele><time>2026-04-03T10:13:43.277Z</time></trkpt><trkpt lat="45.166895" lon="8.8136"><ele>97.66666666666666</ele><time>2026-04-03T10:13:45.277Z</time></trkpt><trkpt lat="45.1668317" lon="8.8135433"><ele>97.83333333333333</ele><time>2026-04-03T10:13:47.276Z</time></trkpt><trkpt lat="45.1667633" lon="8.813485"><ele>98.0</ele><time>2026-04-03T10:13:49.277Z</time></trkpt><trkpt lat="45.1666967" lon="8.813425"><ele>97.99999999999999</ele><time>2026-04-03T10:13:51.277Z</time></trkpt><trkpt lat="45.1666317" lon="8.8133683"><ele>98.0</ele><time>2026-04-03T10:13:53.277Z</time></trkpt><trkpt lat="45.16656" lon="8.8133117"><ele>98.0</ele><time>2026-04-03T10:13:55.276Z</time></trkpt><trkpt lat="45.1664933" lon="8.81325"><ele>98.0</ele><time>2026-04-03T10:13:57.276Z</time></trkpt><trkpt lat="45.1663977" lon="8.8131626"><ele>97.99999999999999</ele><time>2026-04-03T10:14:00.489Z</time></trkpt><trkpt lat="45.1663338" lon="8.8131113"><ele>98.0</ele><time>2026-04-03T10:14:02.503Z</time></trkpt><trkpt lat="45.1662545" lon="8.8130563"><ele>97.99999999999999</ele><time>2026-04-03T10:14:04.985Z</time></trkpt><trkpt lat="45.1661798" lon="8.8129917"><ele>98.0</ele><time>2026-04-03T10:14:06.988Z</time></trkpt><trkpt lat="45.1661141" lon="8.8129411"><ele>98.0</ele><time>2026-04-03T10:14:08.997Z</time></trkpt><trkpt lat="45.1660556" lon="8.8128848"><ele>98.0</ele><time>2026-04-03T10:14:11Z</time></trkpt><trkpt lat="45.1659786" lon="8.8128161"><ele>97.99999999999999</ele><time>2026-04-03T10:14:12.962Z</time></trkpt><trkpt lat="45.1658886" lon="8.8127441"><ele>98.0</ele><time>2026-04-03T10:14:15.51Z</time></trkpt><trkpt lat="45.1658173" lon="8.8126902"><ele>98.16666666666666</ele><time>2026-04-03T10:14:17.513Z</time></trkpt><trkpt lat="45.1657477" lon="8.8126371"><ele>98.33333333333333</ele><time>2026-04-03T10:14:19.517Z</time></trkpt><trkpt lat="45.1656821" lon="8.8125839"><ele>98.5</ele><time>2026-04-03T10:14:21.388Z</time></trkpt><trkpt lat="45.1656153" lon="8.8125333"><ele>98.66666666666666</ele><time>2026-04-03T10:14:23.529Z</time></trkpt><trkpt lat="45.1655465" lon="8.8124714"><ele>98.83333333333333</ele><time>2026-04-03T10:14:25.534Z</time></trkpt><trkpt lat="45.1654763" lon="8.8124079"><ele>99.0</ele><time>2026-04-03T10:14:27.537Z</time></trkpt><trkpt lat="45.1654045" lon="8.8123467"><ele>98.33333333333333</ele><time>2026-04-03T10:14:29.54Z</time></trkpt><trkpt lat="45.1653364" lon="8.8122859"><ele>97.66666666666667</ele><time>2026-04-03T10:14:31.545Z</time></trkpt><trkpt lat="45.1652802" lon="8.8122362"><ele>97.0</ele><time>2026-04-03T10:14:33.511Z</time></trkpt><trkpt lat="45.1653164" lon="8.8121123"><ele>96.33333333333334</ele><time>2026-04-03T10:14:44.57Z</time></trkpt><trkpt lat="45.1653588" lon="8.8120453"><ele>95.66666666666667</ele><time>2026-04-03T10:14:46.479Z</time></trkpt><trkpt lat="45.1653982" lon="8.811959"><ele>95.0</ele><time>2026-04-03T10:14:48.489Z</time></trkpt><trkpt lat="45.1654914" lon="8.8118317"><ele>95.0</ele><time>2026-04-03T10:14:50.585Z</time></trkpt><trkpt lat="45.1656083" lon="8.8115583"><ele>95.0</ele><time>2026-04-03T10:14:52.276Z</time></trkpt><trkpt lat="45.1656517" lon="8.811445"><ele>95.0</ele><time>2026-04-03T10:14:53.276Z</time></trkpt><trkpt lat="45.1656917" lon="8.8113083"><ele>95.0</ele><time>2026-04-03T10:14:54.276Z</time></trkpt><trkpt lat="45.1657267" lon="8.8111567"><ele>95.5</ele><time>2026-04-03T10:14:55.276Z</time></trkpt><trkpt lat="45.16576" lon="8.8109967"><ele>96.0</ele><time>2026-04-03T10:14:56.276Z</time></trkpt><trkpt lat="45.165795" lon="8.8108283"><ele>96.5</ele><time>2026-04-03T10:14:57.275Z</time></trkpt><trkpt lat="45.16583" lon="8.8106567"><ele>97.0</ele><time>2026-04-03T10:14:58.276Z</time></trkpt><trkpt lat="45.165865" lon="8.8104817"><ele>97.0</ele><time>2026-04-03T10:14:59.276Z</time></trkpt><trkpt lat="45.1659017" lon="8.8103083"><ele>97.0</ele><time>2026-04-03T10:15:00.275Z</time></trkpt><trkpt lat="45.1659367" lon="8.810135"><ele>97.0</ele><time>2026-04-03T10:15:01.276Z</time></trkpt><trkpt lat="45.1659717" lon="8.80996"><ele>97.0</ele><time>2026-04-03T10:15:02.275Z</time></trkpt><trkpt lat="45.1660067" lon="8.8097867"><ele>97.0</ele><time>2026-04-03T10:15:03.275Z</time></trkpt><trkpt lat="45.1660433" lon="8.8096067"><ele>97.0</ele><time>2026-04-03T10:15:04.276Z</time></trkpt><trkpt lat="45.1660833" lon="8.8094233"><ele>97.0</ele><time>2026-04-03T10:15:05.276Z</time></trkpt><trkpt lat="45.1661217" lon="8.80924"><ele>97.0</ele><time>2026-04-03T10:15:06.276Z</time></trkpt><trkpt lat="45.1661617" lon="8.8090533"><ele>96.25</ele><time>2026-04-03T10:15:07.275Z</time></trkpt><trkpt lat="45.1662067" lon="8.80887"><ele>95.5</ele><time>2026-04-03T10:15:08.275Z</time></trkpt><trkpt lat="45.1662583" lon="8.8086883"><ele>94.75</ele><time>2026-04-03T10:15:09.275Z</time></trkpt><trkpt lat="45.16632" lon="8.808515"><ele>94.0</ele><time>2026-04-03T10:15:10.276Z</time></trkpt><trkpt lat="45.1663933" lon="8.8083467"><ele>94.0</ele><time>2026-04-03T10:15:11.275Z</time></trkpt><trkpt lat="45.1664733" lon="8.80819"><ele>94.0</ele><time>2026-04-03T10:15:12.275Z</time></trkpt><trkpt lat="45.16656" lon="8.8080383"><ele>94.0</ele><time>2026-04-03T10:15:13.275Z</time></trkpt><trkpt lat="45.1666483" lon="8.80789"><ele>94.0</ele><time>2026-04-03T10:15:14.275Z</time></trkpt><trkpt lat="45.166735" lon="8.80774"><ele>94.5</ele><time>2026-04-03T10:15:15.276Z</time></trkpt><trkpt lat="45.16682" lon="8.80759"><ele>95.0</ele><time>2026-04-03T10:15:16.276Z</time></trkpt><trkpt lat="45.166905" lon="8.80744"><ele>95.5</ele><time>2026-04-03T10:15:17.276Z</time></trkpt><trkpt lat="45.1669883" lon="8.8072933"><ele>96.0</ele><time>2026-04-03T10:15:18.275Z</time></trkpt><trkpt lat="45.1670733" lon="8.807145"><ele>96.0</ele><time>2026-04-03T10:15:19.275Z</time></trkpt><trkpt lat="45.1671583" lon="8.807"><ele>96.0</ele><time>2026-04-03T10:15:20.276Z</time></trkpt><trkpt lat="45.1672433" lon="8.806855"><ele>96.0</ele><time>2026-04-03T10:15:21.276Z</time></trkpt><trkpt lat="45.1673283" lon="8.80671"><ele>96.0</ele><time>2026-04-03T10:15:22.276Z</time></trkpt><trkpt lat="45.16741" lon="8.8065617"><ele>96.0</ele><time>2026-04-03T10:15:23.276Z</time></trkpt><trkpt lat="45.1674933" lon="8.8064133"><ele>96.0</ele><time>2026-04-03T10:15:24.276Z</time></trkpt><trkpt lat="45.167575" lon="8.8062683"><ele>96.0</ele><time>2026-04-03T10:15:25.276Z</time></trkpt><trkpt lat="45.1676567" lon="8.8061233"><ele>96.0</ele><time>2026-04-03T10:15:26.275Z</time></trkpt><trkpt lat="45.1677383" lon="8.80598"><ele>96.25</ele><time>2026-04-03T10:15:27.275Z</time></trkpt><trkpt lat="45.16782" lon="8.80584"><ele>96.5</ele><time>2026-04-03T10:15:28.276Z</time></trkpt><trkpt lat="45.1679" lon="8.8057"><ele>96.75</ele><time>2026-04-03T10:15:29.275Z</time></trkpt><trkpt lat="45.16798" lon="8.8055633"><ele>97.0</ele><time>2026-04-03T10:15:30.276Z</time></trkpt><trkpt lat="45.1680583" lon="8.805425"><ele>97.0</ele><time>2026-04-03T10:15:31.276Z</time></trkpt><trkpt lat="45.1681367" lon="8.8052833"><ele>97.0</ele><time>2026-04-03T10:15:32.276Z</time></trkpt><trkpt lat="45.168215" lon="8.805145"><ele>97.0</ele><time>2026-04-03T10:15:33.276Z</time></trkpt><trkpt lat="45.1682917" lon="8.805005"><ele>97.0</ele><time>2026-04-03T10:15:34.276Z</time></trkpt><trkpt lat="45.1683667" lon="8.8048667"><ele>96.8</ele><time>2026-04-03T10:15:35.276Z</time></trkpt><trkpt lat="45.168435" lon="8.804735"><ele>96.6</ele><time>2026-04-03T10:15:36.276Z</time></trkpt><trkpt lat="45.1684967" lon="8.8046117"><ele>96.39999999999999</ele><time>2026-04-03T10:15:37.276Z</time></trkpt><trkpt lat="45.1685517" lon="8.804495"><ele>96.19999999999999</ele><time>2026-04-03T10:15:38.275Z</time></trkpt><trkpt lat="45.1686033" lon="8.8043783"><ele>96.0</ele><time>2026-04-03T10:15:39.276Z</time></trkpt><trkpt lat="45.1686583" lon="8.80425"><ele>96.0</ele><time>2026-04-03T10:15:40.275Z</time></trkpt><trkpt lat="45.1687167" lon="8.804115"><ele>96.0</ele><time>2026-04-03T10:15:41.276Z</time></trkpt><trkpt lat="45.168775" lon="8.8039767"><ele>96.0</ele><time>2026-04-03T10:15:42.276Z</time></trkpt><trkpt lat="45.1688367" lon="8.8038317"><ele>96.0</ele><time>2026-04-03T10:15:43.276Z</time></trkpt><trkpt lat="45.1688983" lon="8.80369"><ele>96.0</ele><time>2026-04-03T10:15:44.276Z</time></trkpt><trkpt lat="45.1689633" lon="8.8035467"><ele>96.0</ele><time>2026-04-03T10:15:45.275Z</time></trkpt><trkpt lat="45.1690267" lon="8.8034017"><ele>96.0</ele><time>2026-04-03T10:15:46.276Z</time></trkpt><trkpt lat="45.1690917" lon="8.8032567"><ele>96.0</ele><time>2026-04-03T10:15:47.276Z</time></trkpt><trkpt lat="45.169155" lon="8.80311"><ele>96.0</ele><time>2026-04-03T10:15:48.276Z</time></trkpt><trkpt lat="45.16922" lon="8.8029617"><ele>96.0</ele><time>2026-04-03T10:15:49.276Z</time></trkpt><trkpt lat="45.169285" lon="8.80281"><ele>96.0</ele><time>2026-04-03T10:15:50.276Z</time></trkpt><trkpt lat="45.1693483" lon="8.8026567"><ele>96.0</ele><time>2026-04-03T10:15:51.275Z</time></trkpt><trkpt lat="45.1694133" lon="8.8025083"><ele>96.0</ele><time>2026-04-03T10:15:52.275Z</time></trkpt><trkpt lat="45.16948" lon="8.80236"><ele>96.0</ele><time>2026-04-03T10:15:53.275Z</time></trkpt><trkpt lat="45.1695467" lon="8.80221"><ele>96.0</ele><time>2026-04-03T10:15:54.276Z</time></trkpt><trkpt lat="45.1696117" lon="8.80206"><ele>96.0</ele><time>2026-04-03T10:15:55.276Z</time></trkpt><trkpt lat="45.1696767" lon="8.8019133"><ele>95.75</ele><time>2026-04-03T10:15:56.276Z</time></trkpt><trkpt lat="45.1697433" lon="8.8017633"><ele>95.5</ele><time>2026-04-03T10:15:57.275Z</time></trkpt><trkpt lat="45.1698083" lon="8.8016117"><ele>95.25</ele><time>2026-04-03T10:15:58.275Z</time></trkpt><trkpt lat="45.1698717" lon="8.8014617"><ele>95.0</ele><time>2026-04-03T10:15:59.276Z</time></trkpt><trkpt lat="45.169935" lon="8.801315"><ele>95.25</ele><time>2026-04-03T10:16:00.276Z</time></trkpt><trkpt lat="45.17" lon="8.80117"><ele>95.5</ele><time>2026-04-03T10:16:01.275Z</time></trkpt><trkpt lat="45.1700633" lon="8.8010267"><ele>95.75</ele><time>2026-04-03T10:16:02.275Z</time></trkpt><trkpt lat="45.170125" lon="8.8008817"><ele>96.0</ele><time>2026-04-03T10:16:03.276Z</time></trkpt><trkpt lat="45.1701883" lon="8.800735"><ele>96.0</ele><time>2026-04-03T10:16:04.276Z</time></trkpt><trkpt lat="45.1702483" lon="8.80059"><ele>96.0</ele><time>2026-04-03T10:16:05.276Z</time></trkpt><trkpt lat="45.1703083" lon="8.80045"><ele>96.0</ele><time>2026-04-03T10:16:06.276Z</time></trkpt><trkpt lat="45.17037" lon="8.8003117"><ele>96.0</ele><time>2026-04-03T10:16:07.276Z</time></trkpt><trkpt lat="45.1704283" lon="8.8001733"><ele>96.75</ele><time>2026-04-03T10:16:08.276Z</time></trkpt><trkpt lat="45.1704883" lon="8.8000367"><ele>97.5</ele><time>2026-04-03T10:16:09.276Z</time></trkpt><trkpt lat="45.1705467" lon="8.7999"><ele>98.25</ele><time>2026-04-03T10:16:10.275Z</time></trkpt><trkpt lat="45.170605" lon="8.7997617"><ele>99.0</ele><time>2026-04-03T10:16:11.276Z</time></trkpt><trkpt lat="45.170665" lon="8.79962"><ele>98.25</ele><time>2026-04-03T10:16:12.276Z</time></trkpt><trkpt lat="45.1707267" lon="8.79948"><ele>97.5</ele><time>2026-04-03T10:16:13.276Z</time></trkpt><trkpt lat="45.1707883" lon="8.7993433"><ele>96.75</ele><time>2026-04-03T10:16:14.276Z</time></trkpt><trkpt lat="45.1708533" lon="8.7992017"><ele>96.0</ele><time>2026-04-03T10:16:15.275Z</time></trkpt><trkpt lat="45.17092" lon="8.7990567"><ele>95.75</ele><time>2026-04-03T10:16:16.275Z</time></trkpt><trkpt lat="45.170985" lon="8.7989067"><ele>95.5</ele><time>2026-04-03T10:16:17.276Z</time></trkpt><trkpt lat="45.1710517" lon="8.7987533"><ele>95.25</ele><time>2026-04-03T10:16:18.276Z</time></trkpt><trkpt lat="45.1711183" lon="8.7985967"><ele>95.0</ele><time>2026-04-03T10:16:19.275Z</time></trkpt><trkpt lat="45.171185" lon="8.798445"><ele>95.0</ele><time>2026-04-03T10:16:20.275Z</time></trkpt><trkpt lat="45.1712483" lon="8.7983017"><ele>95.0</ele><time>2026-04-03T10:16:21.275Z</time></trkpt><trkpt lat="45.1713067" lon="8.7981667"><ele>95.0</ele><time>2026-04-03T10:16:22.276Z</time></trkpt><trkpt lat="45.1713633" lon="8.7980367"><ele>95.0</ele><time>2026-04-03T10:16:23.276Z</time></trkpt><trkpt lat="45.1714183" lon="8.7979183"><ele>95.0</ele><time>2026-04-03T10:16:24.277Z</time></trkpt><trkpt lat="45.17147" lon="8.7978067"><ele>95.0</ele><time>2026-04-03T10:16:25.276Z</time></trkpt><trkpt lat="45.1715167" lon="8.797705"><ele>95.0</ele><time>2026-04-03T10:16:26.276Z</time></trkpt><trkpt lat="45.17156" lon="8.7976117"><ele>95.0</ele><time>2026-04-03T10:16:27.277Z</time></trkpt><trkpt lat="45.1716" lon="8.79752"><ele>95.0</ele><time>2026-04-03T10:16:28.276Z</time></trkpt><trkpt lat="45.1716383" lon="8.7974283"><ele>95.0</ele><time>2026-04-03T10:16:29.277Z</time></trkpt><trkpt lat="45.1716783" lon="8.7973383"><ele>95.0</ele><time>2026-04-03T10:16:30.276Z</time></trkpt><trkpt lat="45.1717183" lon="8.7972467"><ele>95.33333333333334</ele><time>2026-04-03T10:16:31.277Z</time></trkpt><trkpt lat="45.17176" lon="8.7971583"><ele>95.66666666666667</ele><time>2026-04-03T10:16:32.277Z</time></trkpt><trkpt lat="45.1717983" lon="8.7970733"><ele>96.0</ele><time>2026-04-03T10:16:33.277Z</time></trkpt><trkpt lat="45.1718533" lon="8.7969617"><ele>96.33333333333334</ele><time>2026-04-03T10:16:35.277Z</time></trkpt><trkpt lat="45.1719233" lon="8.7969467"><ele>96.66666666666667</ele><time>2026-04-03T10:16:39.277Z</time></trkpt><trkpt lat="45.1719767" lon="8.7970283"><ele>97.0</ele><time>2026-04-03T10:16:41.276Z</time></trkpt><trkpt lat="45.1720583" lon="8.7971917"><ele>97.0</ele><time>2026-04-03T10:16:43.277Z</time></trkpt><trkpt lat="45.1721167" lon="8.7972883"><ele>97.0</ele><time>2026-04-03T10:16:44.277Z</time></trkpt><trkpt lat="45.17219" lon="8.797385"><ele>97.0</ele><time>2026-04-03T10:16:45.277Z</time></trkpt><trkpt lat="45.172275" lon="8.7974783"><ele>97.0</ele><time>2026-04-03T10:16:46.276Z</time></trkpt><trkpt lat="45.1723733" lon="8.7975667"><ele>97.0</ele><time>2026-04-03T10:16:47.276Z</time></trkpt><trkpt lat="45.1724867" lon="8.797655"><ele>96.75</ele><time>2026-04-03T10:16:48.276Z</time></trkpt><trkpt lat="45.1726067" lon="8.7977417"><ele>96.5</ele><time>2026-04-03T10:16:49.277Z</time></trkpt><trkpt lat="45.17273" lon="8.7978267"><ele>96.25</ele><time>2026-04-03T10:16:50.276Z</time></trkpt><trkpt lat="45.1728567" lon="8.7979133"><ele>96.0</ele><time>2026-04-03T10:16:51.276Z</time></trkpt><trkpt lat="45.172985" lon="8.798"><ele>96.0</ele><time>2026-04-03T10:16:52.277Z</time></trkpt><trkpt lat="45.1731133" lon="8.7980883"><ele>96.0</ele><time>2026-04-03T10:16:53.277Z</time></trkpt><trkpt lat="45.1732417" lon="8.798175"><ele>96.0</ele><time>2026-04-03T10:16:54.276Z</time></trkpt><trkpt lat="45.1733683" lon="8.7982567"><ele>96.0</ele><time>2026-04-03T10:16:55.277Z</time></trkpt><trkpt lat="45.1734967" lon="8.7983317"><ele>96.25</ele><time>2026-04-03T10:16:56.276Z</time></trkpt><trkpt lat="45.1736217" lon="8.798405"><ele>96.5</ele><time>2026-04-03T10:16:57.277Z</time></trkpt><trkpt lat="45.17374" lon="8.7984783"><ele>96.75</ele><time>2026-04-03T10:16:58.277Z</time></trkpt><trkpt lat="45.1738567" lon="8.79855"><ele>97.0</ele><time>2026-04-03T10:16:59.277Z</time></trkpt><trkpt lat="45.1739617" lon="8.7986233"><ele>97.16666666666667</ele><time>2026-04-03T10:17:00.277Z</time></trkpt><trkpt lat="45.174055" lon="8.7986933"><ele>97.33333333333334</ele><time>2026-04-03T10:17:01.276Z</time></trkpt><trkpt lat="45.1741366" lon="8.7987645"><ele>97.5</ele><time>2026-04-03T10:17:02.277Z</time></trkpt><trkpt lat="45.1742049" lon="8.798837"><ele>97.66666666666666</ele><time>2026-04-03T10:17:03.276Z</time></trkpt><trkpt lat="45.174256" lon="8.7989162"><ele>97.83333333333333</ele><time>2026-04-03T10:17:04.277Z</time></trkpt><trkpt lat="45.1742914" lon="8.7990053"><ele>98.0</ele><time>2026-04-03T10:17:05.276Z</time></trkpt><trkpt lat="45.1743131" lon="8.7991059"><ele>97.99999999999999</ele><time>2026-04-03T10:17:06.277Z</time></trkpt><trkpt lat="45.1743199" lon="8.7992174"><ele>98.0</ele><time>2026-04-03T10:17:07.276Z</time></trkpt><trkpt lat="45.1743169" lon="8.7993438"><ele>98.0</ele><time>2026-04-03T10:17:08.276Z</time></trkpt><trkpt lat="45.1743111" lon="8.7994731"><ele>98.0</ele><time>2026-04-03T10:17:09.277Z</time></trkpt><trkpt lat="45.1743099" lon="8.7995995"><ele>97.99999999999999</ele><time>2026-04-03T10:17:10.276Z</time></trkpt><trkpt lat="45.1743128" lon="8.7997229"><ele>98.0</ele><time>2026-04-03T10:17:11.277Z</time></trkpt><trkpt lat="45.1743254" lon="8.7998403"><ele>97.83333333333333</ele><time>2026-04-03T10:17:12.276Z</time></trkpt><trkpt lat="45.1743482" lon="8.7999484"><ele>97.66666666666666</ele><time>2026-04-03T10:17:13.277Z</time></trkpt><trkpt lat="45.1743879" lon="8.8000488"><ele>97.5</ele><time>2026-04-03T10:17:14.276Z</time></trkpt><trkpt lat="45.174441" lon="8.800142"><ele>97.33333333333334</ele><time>2026-04-03T10:17:15.277Z</time></trkpt><trkpt lat="45.1745056" lon="8.8002247"><ele>97.16666666666667</ele><time>2026-04-03T10:17:16.276Z</time></trkpt><trkpt lat="45.1745794" lon="8.8002944"><ele>97.0</ele><time>2026-04-03T10:17:17.277Z</time></trkpt><trkpt lat="45.1746618" lon="8.8003541"><ele>97.39999999999999</ele><time>2026-04-03T10:17:18.277Z</time></trkpt><trkpt lat="45.1747519" lon="8.8004077"><ele>97.8</ele><time>2026-04-03T10:17:19.276Z</time></trkpt><trkpt lat="45.1748482" lon="8.8004616"><ele>98.2</ele><time>2026-04-03T10:17:20.276Z</time></trkpt><trkpt lat="45.1749441" lon="8.8005175"><ele>98.6</ele><time>2026-04-03T10:17:21.276Z</time></trkpt><trkpt lat="45.1750394" lon="8.8005727"><ele>99.0</ele><time>2026-04-03T10:17:22.276Z</time></trkpt><trkpt lat="45.1751349" lon="8.8006292"><ele>99.0</ele><time>2026-04-03T10:17:23.277Z</time></trkpt><trkpt lat="45.1752286" lon="8.8006888"><ele>99.0</ele><time>2026-04-03T10:17:24.277Z</time></trkpt><trkpt lat="45.1753194" lon="8.8007457"><ele>99.0</ele><time>2026-04-03T10:17:25.276Z</time></trkpt><trkpt lat="45.1754033" lon="8.8007996"><ele>99.0</ele><time>2026-04-03T10:17:26.277Z</time></trkpt><trkpt lat="45.1754784" lon="8.8008503"><ele>99.0</ele><time>2026-04-03T10:17:27.277Z</time></trkpt><trkpt lat="45.1755461" lon="8.8009048"><ele>99.0</ele><time>2026-04-03T10:17:28.277Z</time></trkpt><trkpt lat="45.175605" lon="8.8009618"><ele>99.0</ele><time>2026-04-03T10:17:29.276Z</time></trkpt><trkpt lat="45.175653" lon="8.8010247"><ele>99.0</ele><time>2026-04-03T10:17:30.277Z</time></trkpt><trkpt lat="45.1757087" lon="8.8011859"><ele>99.0</ele><time>2026-04-03T10:17:32.276Z</time></trkpt><trkpt lat="45.1757231" lon="8.8012951"><ele>99.0</ele><time>2026-04-03T10:17:33.277Z</time></trkpt><trkpt lat="45.1757369" lon="8.8014193"><ele>99.0</ele><time>2026-04-03T10:17:34.277Z</time></trkpt><trkpt lat="45.1757513" lon="8.8015485"><ele>99.0</ele><time>2026-04-03T10:17:35.276Z</time></trkpt><trkpt lat="45.175765" lon="8.8016715"><ele>99.0</ele><time>2026-04-03T10:17:36.277Z</time></trkpt><trkpt lat="45.175783" lon="8.8017931"><ele>99.0</ele><time>2026-04-03T10:17:37.277Z</time></trkpt><trkpt lat="45.1758004" lon="8.8019163"><ele>99.0</ele><time>2026-04-03T10:17:38.277Z</time></trkpt><trkpt lat="45.1758185" lon="8.8020371"><ele>99.0</ele><time>2026-04-03T10:17:39.276Z</time></trkpt><trkpt lat="45.1758392" lon="8.802147"><ele>99.0</ele><time>2026-04-03T10:17:40.276Z</time></trkpt><trkpt lat="45.1758644" lon="8.8022471"><ele>98.83333333333333</ele><time>2026-04-03T10:17:41.277Z</time></trkpt><trkpt lat="45.1758971" lon="8.8023445"><ele>98.66666666666666</ele><time>2026-04-03T10:17:42.277Z</time></trkpt><trkpt lat="45.1759388" lon="8.8024439"><ele>98.5</ele><time>2026-04-03T10:17:43.276Z</time></trkpt><trkpt lat="45.1759881" lon="8.8025456"><ele>98.33333333333333</ele><time>2026-04-03T10:17:44.277Z</time></trkpt><trkpt lat="45.1760437" lon="8.802646"><ele>98.16666666666666</ele><time>2026-04-03T10:17:45.276Z</time></trkpt><trkpt lat="45.1761034" lon="8.8027416"><ele>98.0</ele><time>2026-04-03T10:17:46.276Z</time></trkpt><trkpt lat="45.1761665" lon="8.8028384"><ele>98.0</ele><time>2026-04-03T10:17:47.276Z</time></trkpt><trkpt lat="45.1762296" lon="8.8029374"><ele>98.0</ele><time>2026-04-03T10:17:48.276Z</time></trkpt><trkpt lat="45.1762947" lon="8.8030357"><ele>98.0</ele><time>2026-04-03T10:17:49.277Z</time></trkpt><trkpt lat="45.1763652" lon="8.8031294"><ele>98.0</ele><time>2026-04-03T10:17:50.276Z</time></trkpt><trkpt lat="45.1764359" lon="8.8032181"><ele>98.0</ele><time>2026-04-03T10:17:51.277Z</time></trkpt><trkpt lat="45.1765049" lon="8.8033043"><ele>98.0</ele><time>2026-04-03T10:17:52.276Z</time></trkpt><trkpt lat="45.1765719" lon="8.8033901"><ele>98.0</ele><time>2026-04-03T10:17:53.277Z</time></trkpt><trkpt lat="45.1766358" lon="8.8034761"><ele>98.0</ele><time>2026-04-03T10:17:54.277Z</time></trkpt><trkpt lat="45.1767518" lon="8.803641"><ele>98.0</ele><time>2026-04-03T10:17:56.276Z</time></trkpt><trkpt lat="45.1768087" lon="8.8037243"><ele>98.0</ele><time>2026-04-03T10:17:57.277Z</time></trkpt><trkpt lat="45.176864" lon="8.8038066"><ele>97.99999999999999</ele><time>2026-04-03T10:17:58.277Z</time></trkpt><trkpt lat="45.1769223" lon="8.8038865"><ele>98.0</ele><time>2026-04-03T10:17:59.276Z</time></trkpt><trkpt lat="45.1769764" lon="8.8039583"><ele>98.0</ele><time>2026-04-03T10:18:00.277Z</time></trkpt><trkpt lat="45.1770251" lon="8.8040177"><ele>98.0</ele><time>2026-04-03T10:18:01.277Z</time></trkpt><trkpt lat="45.1770975" lon="8.804098"><ele>97.99999999999999</ele><time>2026-04-03T10:18:03.276Z</time></trkpt><trkpt lat="45.1771562" lon="8.8041532"><ele>98.0</ele><time>2026-04-03T10:18:05.277Z</time></trkpt><trkpt lat="45.1772181" lon="8.8042029"><ele>97.99999999999999</ele><time>2026-04-03T10:18:08.277Z</time></trkpt><trkpt lat="45.1772633" lon="8.8042667"><ele>98.0</ele><time>2026-04-03T10:18:12.276Z</time></trkpt><trkpt lat="45.1772917" lon="8.804375"><ele>98.0</ele><time>2026-04-03T10:18:15.277Z</time></trkpt><trkpt lat="45.177325" lon="8.804495"><ele>98.0</ele><time>2026-04-03T10:18:17.276Z</time></trkpt><trkpt lat="45.1773933" lon="8.804645"><ele>97.99999999999999</ele><time>2026-04-03T10:18:19.277Z</time></trkpt><trkpt lat="45.1774383" lon="8.8047367"><ele>98.0</ele><time>2026-04-03T10:18:20.277Z</time></trkpt><trkpt lat="45.17749" lon="8.8048383"><ele>98.0</ele><time>2026-04-03T10:18:21.276Z</time></trkpt><trkpt lat="45.177545" lon="8.8049517"><ele>98.0</ele><time>2026-04-03T10:18:22.277Z</time></trkpt><trkpt lat="45.1776" lon="8.8050767"><ele>98.0</ele><time>2026-04-03T10:18:23.277Z</time></trkpt><trkpt lat="45.1776533" lon="8.8052017"><ele>98.0</ele><time>2026-04-03T10:18:24.276Z</time></trkpt><trkpt lat="45.177705" lon="8.8053283"><ele>98.0</ele><time>2026-04-03T10:18:25.276Z</time></trkpt><trkpt lat="45.177755" lon="8.80546"><ele>98.0</ele><time>2026-04-03T10:18:26.277Z</time></trkpt><trkpt lat="45.1778083" lon="8.805595"><ele>98.0</ele><time>2026-04-03T10:18:27.276Z</time></trkpt><trkpt lat="45.177865" lon="8.805735"><ele>98.0</ele><time>2026-04-03T10:18:28.277Z</time></trkpt><trkpt lat="45.1779233" lon="8.805875"><ele>98.0</ele><time>2026-04-03T10:18:29.277Z</time></trkpt><trkpt lat="45.1779817" lon="8.8060167"><ele>97.75</ele><time>2026-04-03T10:18:30.277Z</time></trkpt><trkpt lat="45.1780417" lon="8.8061617"><ele>97.5</ele><time>2026-04-03T10:18:31.277Z</time></trkpt><trkpt lat="45.1781" lon="8.8063083"><ele>97.25</ele><time>2026-04-03T10:18:32.277Z</time></trkpt><trkpt lat="45.1781633" lon="8.8064533"><ele>97.0</ele><time>2026-04-03T10:18:33.277Z</time></trkpt><trkpt lat="45.1782283" lon="8.8065983"><ele>97.0</ele><time>2026-04-03T10:18:34.276Z</time></trkpt><trkpt lat="45.1782917" lon="8.80674"><ele>97.0</ele><time>2026-04-03T10:18:35.276Z</time></trkpt><trkpt lat="45.17836" lon="8.8068733"><ele>97.0</ele><time>2026-04-03T10:18:36.276Z</time></trkpt><trkpt lat="45.1784333" lon="8.807"><ele>97.0</ele><time>2026-04-03T10:18:37.277Z</time></trkpt><trkpt lat="45.1785133" lon="8.8071233"><ele>97.25</ele><time>2026-04-03T10:18:38.276Z</time></trkpt><trkpt lat="45.1785933" lon="8.8072483"><ele>97.5</ele><time>2026-04-03T10:18:39.277Z</time></trkpt><trkpt lat="45.1786733" lon="8.807375"><ele>97.75</ele><time>2026-04-03T10:18:40.277Z</time></trkpt><trkpt lat="45.1787567" lon="8.8074983"><ele>98.0</ele><time>2026-04-03T10:18:41.276Z</time></trkpt><trkpt lat="45.1788417" lon="8.8076217"><ele>98.0</ele><time>2026-04-03T10:18:42.276Z</time></trkpt><trkpt lat="45.1789283" lon="8.8077433"><ele>98.0</ele><time>2026-04-03T10:18:43.277Z</time></trkpt><trkpt lat="45.1790133" lon="8.807855"><ele>98.0</ele><time>2026-04-03T10:18:44.277Z</time></trkpt><trkpt lat="45.1790883" lon="8.8079583"><ele>98.0</ele><time>2026-04-03T10:18:45.277Z</time></trkpt><trkpt lat="45.1791583" lon="8.8080667"><ele>98.0</ele><time>2026-04-03T10:18:46.277Z</time></trkpt><trkpt lat="45.17923" lon="8.808185"><ele>98.0</ele><time>2026-04-03T10:18:47.276Z</time></trkpt><trkpt lat="45.1793133" lon="8.8083217"><ele>98.0</ele><time>2026-04-03T10:18:48.276Z</time></trkpt><trkpt lat="45.1794083" lon="8.80848"><ele>98.0</ele><time>2026-04-03T10:18:49.277Z</time></trkpt><trkpt lat="45.1795133" lon="8.80866"><ele>98.0</ele><time>2026-04-03T10:18:50.277Z</time></trkpt><trkpt lat="45.17962" lon="8.8088433"><ele>98.0</ele><time>2026-04-03T10:18:51.276Z</time></trkpt><trkpt lat="45.1797267" lon="8.80902"><ele>98.0</ele><time>2026-04-03T10:18:52.277Z</time></trkpt><trkpt lat="45.1798333" lon="8.8091917"><ele>98.0</ele><time>2026-04-03T10:18:53.276Z</time></trkpt><trkpt lat="45.17994" lon="8.80936"><ele>98.0</ele><time>2026-04-03T10:18:54.276Z</time></trkpt><trkpt lat="45.1800467" lon="8.8095217"><ele>98.0</ele><time>2026-04-03T10:18:55.276Z</time></trkpt><trkpt lat="45.18015" lon="8.8096767"><ele>98.0</ele><time>2026-04-03T10:18:56.276Z</time></trkpt><trkpt lat="45.18025" lon="8.8098217"><ele>98.0</ele><time>2026-04-03T10:18:57.277Z</time></trkpt><trkpt lat="45.18034" lon="8.80995"><ele>98.0</ele><time>2026-04-03T10:18:58.276Z</time></trkpt><trkpt lat="45.1804267" lon="8.8100717"><ele>98.0</ele><time>2026-04-03T10:18:59.276Z</time></trkpt><trkpt lat="45.1805067" lon="8.810195"><ele>98.0</ele><time>2026-04-03T10:19:00.276Z</time></trkpt><trkpt lat="45.1805933" lon="8.81034"><ele>98.0</ele><time>2026-04-03T10:19:01.277Z</time></trkpt><trkpt lat="45.1806817" lon="8.8104933"><ele>98.5</ele><time>2026-04-03T10:19:02.277Z</time></trkpt><trkpt lat="45.180765" lon="8.8106383"><ele>99.0</ele><time>2026-04-03T10:19:03.276Z</time></trkpt><trkpt lat="45.180845" lon="8.810775"><ele>99.5</ele><time>2026-04-03T10:19:04.277Z</time></trkpt><trkpt lat="45.1809217" lon="8.8109067"><ele>100.0</ele><time>2026-04-03T10:19:05.276Z</time></trkpt><trkpt lat="45.1809967" lon="8.8110367"><ele>100.0</ele><time>2026-04-03T10:19:06.276Z</time></trkpt><trkpt lat="45.181075" lon="8.811165"><ele>100.0</ele><time>2026-04-03T10:19:07.276Z</time></trkpt><trkpt lat="45.1811533" lon="8.81129"><ele>100.0</ele><time>2026-04-03T10:19:08.276Z</time></trkpt><trkpt lat="45.181225" lon="8.8114117"><ele>100.0</ele><time>2026-04-03T10:19:09.277Z</time></trkpt><trkpt lat="45.1812967" lon="8.8115317"><ele>100.0</ele><time>2026-04-03T10:19:10.277Z</time></trkpt><trkpt lat="45.181365" lon="8.8116483"><ele>100.0</ele><time>2026-04-03T10:19:11.276Z</time></trkpt><trkpt lat="45.1814367" lon="8.811765"><ele>100.0</ele><time>2026-04-03T10:19:12.275Z</time></trkpt><trkpt lat="45.18151" lon="8.8118817"><ele>100.0</ele><time>2026-04-03T10:19:13.276Z</time></trkpt><trkpt lat="45.181585" lon="8.8119917"><ele>100.0</ele><time>2026-04-03T10:19:14.275Z</time></trkpt><trkpt lat="45.181655" lon="8.8120917"><ele>99.83333333333334</ele><time>2026-04-03T10:19:15.275Z</time></trkpt><trkpt lat="45.1817167" lon="8.8121817"><ele>99.66666666666667</ele><time>2026-04-03T10:19:16.276Z</time></trkpt><trkpt lat="45.1817633" lon="8.8122733"><ele>99.5</ele><time>2026-04-03T10:19:17.275Z</time></trkpt><trkpt lat="45.1817967" lon="8.8123717"><ele>99.33333333333334</ele><time>2026-04-03T10:19:18.275Z</time></trkpt><trkpt lat="45.1818217" lon="8.8124867"><ele>99.16666666666667</ele><time>2026-04-03T10:19:19.276Z</time></trkpt><trkpt lat="45.18185" lon="8.8126117"><ele>99.0</ele><time>2026-04-03T10:19:20.276Z</time></trkpt><trkpt lat="45.1818883" lon="8.8127417"><ele>99.0</ele><time>2026-04-03T10:19:21.276Z</time></trkpt><trkpt lat="45.1819283" lon="8.812865"><ele>99.0</ele><time>2026-04-03T10:19:22.276Z</time></trkpt><trkpt lat="45.1819617" lon="8.812975"><ele>99.0</ele><time>2026-04-03T10:19:23.276Z</time></trkpt><trkpt lat="45.18199" lon="8.813075"><ele>99.0</ele><time>2026-04-03T10:19:24.276Z</time></trkpt><trkpt lat="45.1820117" lon="8.81316"><ele>99.0</ele><time>2026-04-03T10:19:25.276Z</time></trkpt><trkpt lat="45.1820683" lon="8.8133117"><ele>99.0</ele><time>2026-04-03T10:19:27.275Z</time></trkpt><trkpt lat="45.182115" lon="8.813395"><ele>99.0</ele><time>2026-04-03T10:19:28.276Z</time></trkpt><trkpt lat="45.18217" lon="8.8134883"><ele>99.0</ele><time>2026-04-03T10:19:29.275Z</time></trkpt><trkpt lat="45.1822233" lon="8.8136"><ele>99.0</ele><time>2026-04-03T10:19:30.275Z</time></trkpt><trkpt lat="45.1822767" lon="8.813735"><ele>99.0</ele><time>2026-04-03T10:19:31.276Z</time></trkpt><trkpt lat="45.1823267" lon="8.8138717"><ele>99.0</ele><time>2026-04-03T10:19:32.276Z</time></trkpt><trkpt lat="45.1823783" lon="8.8139967"><ele>98.75</ele><time>2026-04-03T10:19:33.276Z</time></trkpt><trkpt lat="45.1824433" lon="8.8141167"><ele>98.5</ele><time>2026-04-03T10:19:34.276Z</time></trkpt><trkpt lat="45.1825233" lon="8.8142317"><ele>98.25</ele><time>2026-04-03T10:19:35.275Z</time></trkpt><trkpt lat="45.18262" lon="8.8143533"><ele>98.0</ele><time>2026-04-03T10:19:36.276Z</time></trkpt><trkpt lat="45.1827233" lon="8.8144767"><ele>98.0</ele><time>2026-04-03T10:19:37.275Z</time></trkpt><trkpt lat="45.1828267" lon="8.8146017"><ele>98.0</ele><time>2026-04-03T10:19:38.276Z</time></trkpt><trkpt lat="45.1829333" lon="8.8147283"><ele>98.0</ele><time>2026-04-03T10:19:39.276Z</time></trkpt><trkpt lat="45.1830383" lon="8.8148583"><ele>98.0</ele><time>2026-04-03T10:19:40.275Z</time></trkpt><trkpt lat="45.1831417" lon="8.8149883"><ele>98.0</ele><time>2026-04-03T10:19:41.275Z</time></trkpt><trkpt lat="45.1832483" lon="8.8151183"><ele>98.0</ele><time>2026-04-03T10:19:42.276Z</time></trkpt><trkpt lat="45.1833533" lon="8.8152517"><ele>98.0</ele><time>2026-04-03T10:19:43.275Z</time></trkpt><trkpt lat="45.1834583" lon="8.8153833"><ele>98.0</ele><time>2026-04-03T10:19:44.275Z</time></trkpt><trkpt lat="45.1835583" lon="8.815505"><ele>98.5</ele><time>2026-04-03T10:19:45.275Z</time></trkpt><trkpt lat="45.1836583" lon="8.8156267"><ele>99.0</ele><time>2026-04-03T10:19:46.275Z</time></trkpt><trkpt lat="45.18376" lon="8.815755"><ele>99.5</ele><time>2026-04-03T10:19:47.276Z</time></trkpt><trkpt lat="45.183865" lon="8.8158883"><ele>100.0</ele><time>2026-04-03T10:19:48.276Z</time></trkpt><trkpt lat="45.1839717" lon="8.816025"><ele>99.25</ele><time>2026-04-03T10:19:49.276Z</time></trkpt><trkpt lat="45.1840767" lon="8.8161583"><ele>98.5</ele><time>2026-04-03T10:19:50.275Z</time></trkpt><trkpt lat="45.1841783" lon="8.8162883"><ele>97.75</ele><time>2026-04-03T10:19:51.275Z</time></trkpt><trkpt lat="45.1842767" lon="8.8164133"><ele>97.0</ele><time>2026-04-03T10:19:52.276Z</time></trkpt><trkpt lat="45.1843683" lon="8.816525"><ele>97.0</ele><time>2026-04-03T10:19:53.276Z</time></trkpt><trkpt lat="45.18445" lon="8.8166283"><ele>97.0</ele><time>2026-04-03T10:19:54.275Z</time></trkpt><trkpt lat="45.1845267" lon="8.8167267"><ele>97.0</ele><time>2026-04-03T10:19:55.276Z</time></trkpt><trkpt lat="45.1845967" lon="8.8168183"><ele>97.0</ele><time>2026-04-03T10:19:56.276Z</time></trkpt><trkpt lat="45.18466" lon="8.8169017"><ele>97.0</ele><time>2026-04-03T10:19:57.275Z</time></trkpt><trkpt lat="45.184715" lon="8.8169733"><ele>97.00000000000001</ele><time>2026-04-03T10:19:58.275Z</time></trkpt><trkpt lat="45.184795" lon="8.8170833"><ele>97.0</ele><time>2026-04-03T10:20:00.275Z</time></trkpt><trkpt lat="45.1848457" lon="8.8171464"><ele>97.0</ele><time>2026-04-03T10:20:02.276Z</time></trkpt><trkpt lat="45.1848964" lon="8.8172098"><ele>97.0</ele><time>2026-04-03T10:20:05.275Z</time></trkpt><trkpt lat="45.18495" lon="8.8172783"><ele>97.00000000000001</ele><time>2026-04-03T10:20:21.275Z</time></trkpt><trkpt lat="45.1850133" lon="8.81735"><ele>97.0</ele><time>2026-04-03T10:20:22.276Z</time></trkpt><trkpt lat="45.1850983" lon="8.8174483"><ele>97.0</ele><time>2026-04-03T10:20:23.275Z</time></trkpt><trkpt lat="45.1852117" lon="8.817585"><ele>97.0</ele><time>2026-04-03T10:20:24.275Z</time></trkpt><trkpt lat="45.18532" lon="8.8177183"><ele>97.0</ele><time>2026-04-03T10:20:25.276Z</time></trkpt><trkpt lat="45.18542" lon="8.817835"><ele>97.0</ele><time>2026-04-03T10:20:26.275Z</time></trkpt><trkpt lat="45.1855133" lon="8.8179483"><ele>97.5</ele><time>2026-04-03T10:20:27.276Z</time></trkpt><trkpt lat="45.185605" lon="8.8180667"><ele>98.0</ele><time>2026-04-03T10:20:28.276Z</time></trkpt><trkpt lat="45.185695" lon="8.81819"><ele>98.5</ele><time>2026-04-03T10:20:29.276Z</time></trkpt><trkpt lat="45.185785" lon="8.8183183"><ele>99.0</ele><time>2026-04-03T10:20:30.275Z</time></trkpt><trkpt lat="45.1858683" lon="8.8184517"><ele>100.0</ele><time>2026-04-03T10:20:31.276Z</time></trkpt><trkpt lat="45.1859467" lon="8.8185867"><ele>101.0</ele><time>2026-04-03T10:20:32.276Z</time></trkpt><trkpt lat="45.1860333" lon="8.81872"><ele>102.0</ele><time>2026-04-03T10:20:33.276Z</time></trkpt><trkpt lat="45.186125" lon="8.8188467"><ele>103.0</ele><time>2026-04-03T10:20:34.276Z</time></trkpt><trkpt lat="45.1862117" lon="8.818965"><ele>103.0</ele><time>2026-04-03T10:20:35.275Z</time></trkpt><trkpt lat="45.18629" lon="8.8190733"><ele>103.0</ele><time>2026-04-03T10:20:36.276Z</time></trkpt><trkpt lat="45.186365" lon="8.819175"><ele>103.0</ele><time>2026-04-03T10:20:37.275Z</time></trkpt><trkpt lat="45.1864317" lon="8.8192733"><ele>103.0</ele><time>2026-04-03T10:20:38.275Z</time></trkpt><trkpt lat="45.1864917" lon="8.8193667"><ele>103.0</ele><time>2026-04-03T10:20:39.276Z</time></trkpt><trkpt lat="45.1865433" lon="8.8194517"><ele>102.80000000000001</ele><time>2026-04-03T10:20:40.275Z</time></trkpt><trkpt lat="45.1865883" lon="8.819525"><ele>102.6</ele><time>2026-04-03T10:20:41.275Z</time></trkpt><trkpt lat="45.186645" lon="8.8196183"><ele>102.4</ele><time>2026-04-03T10:20:43.276Z</time></trkpt><trkpt lat="45.18674" lon="8.8196533"><ele>102.19999999999999</ele><time>2026-04-03T10:21:00.276Z</time></trkpt><trkpt lat="45.1868567" lon="8.8195817"><ele>102.0</ele><time>2026-04-03T10:21:02.275Z</time></trkpt><trkpt lat="45.1869283" lon="8.81954"><ele>102.0</ele><time>2026-04-03T10:21:03.276Z</time></trkpt><trkpt lat="45.1870083" lon="8.8194983"><ele>102.0</ele><time>2026-04-03T10:21:04.276Z</time></trkpt><trkpt lat="45.1871" lon="8.81946"><ele>102.0</ele><time>2026-04-03T10:21:05.275Z</time></trkpt><trkpt lat="45.1871967" lon="8.8194233"><ele>102.0</ele><time>2026-04-03T10:21:06.275Z</time></trkpt><trkpt lat="45.187295" lon="8.8193867"><ele>102.0</ele><time>2026-04-03T10:21:07.276Z</time></trkpt><trkpt lat="45.1873933" lon="8.8193583"><ele>101.8</ele><time>2026-04-03T10:21:08.276Z</time></trkpt><trkpt lat="45.18749" lon="8.8193367"><ele>101.6</ele><time>2026-04-03T10:21:09.276Z</time></trkpt><trkpt lat="45.1875817" lon="8.819325"><ele>101.39999999999999</ele><time>2026-04-03T10:21:10.276Z</time></trkpt><trkpt lat="45.1876783" lon="8.81932"><ele>101.19999999999999</ele><time>2026-04-03T10:21:11.276Z</time></trkpt><trkpt lat="45.187775" lon="8.8193167"><ele>101.0</ele><time>2026-04-03T10:21:12.276Z</time></trkpt><trkpt lat="45.1878767" lon="8.8193133"><ele>101.19999999999999</ele><time>2026-04-03T10:21:13.276Z</time></trkpt><trkpt lat="45.1879783" lon="8.8193133"><ele>101.39999999999999</ele><time>2026-04-03T10:21:14.276Z</time></trkpt><trkpt lat="45.1880817" lon="8.8193167"><ele>101.6</ele><time>2026-04-03T10:21:15.277Z</time></trkpt><trkpt lat="45.1881833" lon="8.8193183"><ele>101.8</ele><time>2026-04-03T10:21:16.277Z</time></trkpt><trkpt lat="45.1882833" lon="8.8193267"><ele>102.0</ele><time>2026-04-03T10:21:17.276Z</time></trkpt><trkpt lat="45.1883783" lon="8.8193383"><ele>102.0</ele><time>2026-04-03T10:21:18.277Z</time></trkpt><trkpt lat="45.1884733" lon="8.8193467"><ele>102.0</ele><time>2026-04-03T10:21:19.276Z</time></trkpt><trkpt lat="45.188565" lon="8.819355"><ele>102.0</ele><time>2026-04-03T10:21:20.277Z</time></trkpt><trkpt lat="45.1886517" lon="8.8193617"><ele>102.0</ele><time>2026-04-03T10:21:21.277Z</time></trkpt><trkpt lat="45.18873" lon="8.8193733"><ele>102.0</ele><time>2026-04-03T10:21:22.276Z</time></trkpt><trkpt lat="45.188795" lon="8.8193883"><ele>102.0</ele><time>2026-04-03T10:21:23.277Z</time></trkpt><trkpt lat="45.1888983" lon="8.8194067"><ele>102.0</ele><time>2026-04-03T10:21:25.277Z</time></trkpt><trkpt lat="45.188985" lon="8.8193967"><ele>102.0</ele><time>2026-04-03T10:21:27.277Z</time></trkpt><trkpt lat="45.1890648" lon="8.8193644"><ele>102.0</ele><time>2026-04-03T10:21:29.276Z</time></trkpt><trkpt lat="45.1891737" lon="8.8192886"><ele>102.0</ele><time>2026-04-03T10:21:31.276Z</time></trkpt><trkpt lat="45.1892329" lon="8.8192347"><ele>102.0</ele><time>2026-04-03T10:21:32.277Z</time></trkpt><trkpt lat="45.189283" lon="8.8191734"><ele>102.0</ele><time>2026-04-03T10:21:33.277Z</time></trkpt><trkpt lat="45.1893315" lon="8.8190986"><ele>101.66666666666667</ele><time>2026-04-03T10:21:34.276Z</time></trkpt><trkpt lat="45.1893805" lon="8.8190128"><ele>101.33333333333334</ele><time>2026-04-03T10:21:35.277Z</time></trkpt><trkpt lat="45.1894349" lon="8.8189187"><ele>101.0</ele><time>2026-04-03T10:21:36.276Z</time></trkpt><trkpt lat="45.1894938" lon="8.8188202"><ele>100.66666666666667</ele><time>2026-04-03T10:21:37.276Z</time></trkpt><trkpt lat="45.1895547" lon="8.8187239"><ele>100.33333333333334</ele><time>2026-04-03T10:21:38.277Z</time></trkpt><trkpt lat="45.189612" lon="8.8186345"><ele>100.0</ele><time>2026-04-03T10:21:39.277Z</time></trkpt><trkpt lat="45.1896659" lon="8.8185554"><ele>99.83333333333334</ele><time>2026-04-03T10:21:40.276Z</time></trkpt><trkpt lat="45.1897172" lon="8.8184842"><ele>99.66666666666667</ele><time>2026-04-03T10:21:41.276Z</time></trkpt><trkpt lat="45.1897721" lon="8.8184168"><ele>99.5</ele><time>2026-04-03T10:21:42.277Z</time></trkpt><trkpt lat="45.1898361" lon="8.8183573"><ele>99.33333333333334</ele><time>2026-04-03T10:21:43.276Z</time></trkpt><trkpt lat="45.189911" lon="8.8183075"><ele>99.16666666666667</ele><time>2026-04-03T10:21:44.277Z</time></trkpt><trkpt lat="45.1900003" lon="8.8182646"><ele>99.0</ele><time>2026-04-03T10:21:45.277Z</time></trkpt><trkpt lat="45.190106" lon="8.8182332"><ele>99.0</ele><time>2026-04-03T10:21:46.276Z</time></trkpt><trkpt lat="45.1902236" lon="8.8182106"><ele>99.0</ele><time>2026-04-03T10:21:47.277Z</time></trkpt><trkpt lat="45.1903496" lon="8.8181954"><ele>99.0</ele><time>2026-04-03T10:21:48.277Z</time></trkpt><trkpt lat="45.1904814" lon="8.8181876"><ele>99.0</ele><time>2026-04-03T10:21:49.277Z</time></trkpt><trkpt lat="45.1906185" lon="8.8181803"><ele>99.0</ele><time>2026-04-03T10:21:50.277Z</time></trkpt><trkpt lat="45.1907558" lon="8.8181712"><ele>99.0</ele><time>2026-04-03T10:21:51.277Z</time></trkpt><trkpt lat="45.1908883" lon="8.8181615"><ele>99.0</ele><time>2026-04-03T10:21:52.276Z</time></trkpt><trkpt lat="45.1910118" lon="8.8181509"><ele>99.0</ele><time>2026-04-03T10:21:53.277Z</time></trkpt><trkpt lat="45.1911284" lon="8.8181377"><ele>99.0</ele><time>2026-04-03T10:21:54.277Z</time></trkpt><trkpt lat="45.1912429" lon="8.8181215"><ele>99.0</ele><time>2026-04-03T10:21:55.276Z</time></trkpt><trkpt lat="45.1913591" lon="8.8181025"><ele>99.0</ele><time>2026-04-03T10:21:56.277Z</time></trkpt><trkpt lat="45.1914812" lon="8.8180764"><ele>99.0</ele><time>2026-04-03T10:21:57.276Z</time></trkpt><trkpt lat="45.1916035" lon="8.8180477"><ele>99.0</ele><time>2026-04-03T10:21:58.277Z</time></trkpt><trkpt lat="45.191721" lon="8.8180204"><ele>99.0</ele><time>2026-04-03T10:21:59.277Z</time></trkpt><trkpt lat="45.1918375" lon="8.8179894"><ele>99.0</ele><time>2026-04-03T10:22:00.277Z</time></trkpt><trkpt lat="45.1919583" lon="8.8179571"><ele>99.0</ele><time>2026-04-03T10:22:01.276Z</time></trkpt><trkpt lat="45.1920821" lon="8.8179303"><ele>99.0</ele><time>2026-04-03T10:22:02.277Z</time></trkpt><trkpt lat="45.1922075" lon="8.8179085"><ele>99.0</ele><time>2026-04-03T10:22:03.276Z</time></trkpt><trkpt lat="45.1923371" lon="8.8178889"><ele>99.0</ele><time>2026-04-03T10:22:04.277Z</time></trkpt><trkpt lat="45.1924816" lon="8.8178663"><ele>99.0</ele><time>2026-04-03T10:22:05.277Z</time></trkpt><trkpt lat="45.1926434" lon="8.8178409"><ele>98.0</ele><time>2026-04-03T10:22:06.276Z</time></trkpt><trkpt lat="45.1928068" lon="8.8178174"><ele>97.0</ele><time>2026-04-03T10:22:07.277Z</time></trkpt><trkpt lat="45.1929598" lon="8.8177956"><ele>96.0</ele><time>2026-04-03T10:22:08.277Z</time></trkpt><trkpt lat="45.1930962" lon="8.8177736"><ele>95.75</ele><time>2026-04-03T10:22:09.277Z</time></trkpt><trkpt lat="45.1932238" lon="8.8177504"><ele>95.5</ele><time>2026-04-03T10:22:10.277Z</time></trkpt><trkpt lat="45.1933524" lon="8.8177271"><ele>95.25</ele><time>2026-04-03T10:22:11.276Z</time></trkpt><trkpt lat="45.1934817" lon="8.817706"><ele>95.0</ele><time>2026-04-03T10:22:12.276Z</time></trkpt><trkpt lat="45.1936088" lon="8.8176825"><ele>95.0</ele><time>2026-04-03T10:22:13.276Z</time></trkpt><trkpt lat="45.1937378" lon="8.8176591"><ele>95.0</ele><time>2026-04-03T10:22:14.277Z</time></trkpt><trkpt lat="45.193867" lon="8.8176366"><ele>95.0</ele><time>2026-04-03T10:22:15.276Z</time></trkpt><trkpt lat="45.1939966" lon="8.8176158"><ele>95.0</ele><time>2026-04-03T10:22:16.276Z</time></trkpt><trkpt lat="45.1941225" lon="8.8175945"><ele>95.75</ele><time>2026-04-03T10:22:17.277Z</time></trkpt><trkpt lat="45.1942453" lon="8.8175735"><ele>96.5</ele><time>2026-04-03T10:22:18.277Z</time></trkpt><trkpt lat="45.1943669" lon="8.8175541"><ele>97.25</ele><time>2026-04-03T10:22:19.276Z</time></trkpt><trkpt lat="45.1944867" lon="8.8175344"><ele>98.0</ele><time>2026-04-03T10:22:20.276Z</time></trkpt><trkpt lat="45.1946046" lon="8.8175115"><ele>98.0</ele><time>2026-04-03T10:22:21.277Z</time></trkpt><trkpt lat="45.1947198" lon="8.8174872"><ele>98.0</ele><time>2026-04-03T10:22:22.276Z</time></trkpt><trkpt lat="45.1948328" lon="8.8174556"><ele>98.0</ele><time>2026-04-03T10:22:23.277Z</time></trkpt><trkpt lat="45.1949477" lon="8.8174216"><ele>98.0</ele><time>2026-04-03T10:22:24.277Z</time></trkpt><trkpt lat="45.1950655" lon="8.8173879"><ele>97.5</ele><time>2026-04-03T10:22:25.277Z</time></trkpt><trkpt lat="45.1951859" lon="8.8173555"><ele>97.0</ele><time>2026-04-03T10:22:26.276Z</time></trkpt><trkpt lat="45.1953082" lon="8.8173271"><ele>96.5</ele><time>2026-04-03T10:22:27.276Z</time></trkpt><trkpt lat="45.1954318" lon="8.8172976"><ele>96.0</ele><time>2026-04-03T10:22:28.277Z</time></trkpt><trkpt lat="45.1955579" lon="8.8172688"><ele>96.0</ele><time>2026-04-03T10:22:29.277Z</time></trkpt><trkpt lat="45.1956831" lon="8.8172425"><ele>96.0</ele><time>2026-04-03T10:22:30.277Z</time></trkpt><trkpt lat="45.1958094" lon="8.8172192"><ele>96.0</ele><time>2026-04-03T10:22:31.276Z</time></trkpt><trkpt lat="45.1959363" lon="8.8171969"><ele>96.0</ele><time>2026-04-03T10:22:32.276Z</time></trkpt><trkpt lat="45.1960631" lon="8.8171752"><ele>96.0</ele><time>2026-04-03T10:22:33.277Z</time></trkpt><trkpt lat="45.1961909" lon="8.8171544"><ele>96.0</ele><time>2026-04-03T10:22:34.277Z</time></trkpt><trkpt lat="45.1963199" lon="8.8171329"><ele>96.0</ele><time>2026-04-03T10:22:35.277Z</time></trkpt><trkpt lat="45.196447" lon="8.8171113"><ele>96.0</ele><time>2026-04-03T10:22:36.277Z</time></trkpt><trkpt lat="45.1965707" lon="8.8170877"><ele>96.25</ele><time>2026-04-03T10:22:37.277Z</time></trkpt><trkpt lat="45.1966939" lon="8.8170643"><ele>96.5</ele><time>2026-04-03T10:22:38.277Z</time></trkpt><trkpt lat="45.1968187" lon="8.8170388"><ele>96.75</ele><time>2026-04-03T10:22:39.276Z</time></trkpt><trkpt lat="45.1969446" lon="8.8170181"><ele>97.0</ele><time>2026-04-03T10:22:40.277Z</time></trkpt><trkpt lat="45.1970701" lon="8.8169988"><ele>97.0</ele><time>2026-04-03T10:22:41.277Z</time></trkpt><trkpt lat="45.1971948" lon="8.8169812"><ele>97.0</ele><time>2026-04-03T10:22:42.276Z</time></trkpt><trkpt lat="45.1973184" lon="8.8169608"><ele>97.0</ele><time>2026-04-03T10:22:43.277Z</time></trkpt><trkpt lat="45.1974401" lon="8.816932"><ele>97.0</ele><time>2026-04-03T10:22:44.277Z</time></trkpt><trkpt lat="45.1975614" lon="8.8168906"><ele>96.75</ele><time>2026-04-03T10:22:45.277Z</time></trkpt><trkpt lat="45.1976835" lon="8.8168403"><ele>96.5</ele><time>2026-04-03T10:22:46.276Z</time></trkpt><trkpt lat="45.1978066" lon="8.8167868"><ele>96.25</ele><time>2026-04-03T10:22:47.276Z</time></trkpt><trkpt lat="45.1979304" lon="8.816732"><ele>96.0</ele><time>2026-04-03T10:22:48.276Z</time></trkpt><trkpt lat="45.1980537" lon="8.8166796"><ele>96.25</ele><time>2026-04-03T10:22:49.277Z</time></trkpt><trkpt lat="45.1981768" lon="8.816631"><ele>96.5</ele><time>2026-04-03T10:22:50.277Z</time></trkpt><trkpt lat="45.1983017" lon="8.8165834"><ele>96.75</ele><time>2026-04-03T10:22:51.277Z</time></trkpt><trkpt lat="45.1984251" lon="8.8165344"><ele>97.0</ele><time>2026-04-03T10:22:52.277Z</time></trkpt><trkpt lat="45.1985486" lon="8.8164823"><ele>97.0</ele><time>2026-04-03T10:22:53.276Z</time></trkpt><trkpt lat="45.1986705" lon="8.8164285"><ele>97.0</ele><time>2026-04-03T10:22:54.277Z</time></trkpt><trkpt lat="45.1987917" lon="8.8163711"><ele>97.0</ele><time>2026-04-03T10:22:55.276Z</time></trkpt><trkpt lat="45.1989089" lon="8.8163189"><ele>97.0</ele><time>2026-04-03T10:22:56.276Z</time></trkpt><trkpt lat="45.199028" lon="8.8162692"><ele>97.25</ele><time>2026-04-03T10:22:57.277Z</time></trkpt><trkpt lat="45.1991467" lon="8.8162213"><ele>97.5</ele><time>2026-04-03T10:22:58.276Z</time></trkpt><trkpt lat="45.1992651" lon="8.8161695"><ele>97.75</ele><time>2026-04-03T10:22:59.276Z</time></trkpt><trkpt lat="45.1993799" lon="8.8161253"><ele>98.0</ele><time>2026-04-03T10:23:00.277Z</time></trkpt><trkpt lat="45.1994931" lon="8.8160863"><ele>98.0</ele><time>2026-04-03T10:23:01.277Z</time></trkpt><trkpt lat="45.1996114" lon="8.8160436"><ele>98.0</ele><time>2026-04-03T10:23:02.277Z</time></trkpt><trkpt lat="45.1997363" lon="8.8159972"><ele>98.0</ele><time>2026-04-03T10:23:03.276Z</time></trkpt><trkpt lat="45.1998579" lon="8.8159506"><ele>98.0</ele><time>2026-04-03T10:23:04.276Z</time></trkpt><trkpt lat="45.1999807" lon="8.8159028"><ele>98.4</ele><time>2026-04-03T10:23:05.277Z</time></trkpt><trkpt lat="45.2000975" lon="8.8158592"><ele>98.80000000000001</ele><time>2026-04-03T10:23:06.276Z</time></trkpt><trkpt lat="45.2002099" lon="8.8158161"><ele>99.2</ele><time>2026-04-03T10:23:07.276Z</time></trkpt><trkpt lat="45.2003112" lon="8.8157754"><ele>99.6</ele><time>2026-04-03T10:23:08.276Z</time></trkpt><trkpt lat="45.2004018" lon="8.8157421"><ele>100.0</ele><time>2026-04-03T10:23:09.276Z</time></trkpt><trkpt lat="45.2004775" lon="8.8157202"><ele>100.00000000000001</ele><time>2026-04-03T10:23:10.276Z</time></trkpt><trkpt lat="45.2005406" lon="8.8156983"><ele>100.0</ele><time>2026-04-03T10:23:11.277Z</time></trkpt><trkpt lat="45.2006257" lon="8.8156521"><ele>100.0</ele><time>2026-04-03T10:23:13.277Z</time></trkpt><trkpt lat="45.2006656" lon="8.8155296"><ele>100.0</ele><time>2026-04-03T10:23:16.277Z</time></trkpt><trkpt lat="45.2006525" lon="8.8154024"><ele>100.00000000000001</ele><time>2026-04-03T10:23:18.277Z</time></trkpt><trkpt lat="45.2006391" lon="8.8152569"><ele>100.0</ele><time>2026-04-03T10:23:20.276Z</time></trkpt><trkpt lat="45.2006742" lon="8.815108"><ele>99.25</ele><time>2026-04-03T10:23:22.277Z</time></trkpt><trkpt lat="45.2007355" lon="8.81498"><ele>98.5</ele><time>2026-04-03T10:23:24.277Z</time></trkpt><trkpt lat="45.2008083" lon="8.8148791"><ele>97.75</ele><time>2026-04-03T10:23:26.277Z</time></trkpt><trkpt lat="45.2009398" lon="8.8148285"><ele>97.0</ele><time>2026-04-03T10:23:28.277Z</time></trkpt><trkpt lat="45.201043" lon="8.8148135"><ele>97.0</ele><time>2026-04-03T10:23:29.277Z</time></trkpt><trkpt lat="45.2011727" lon="8.8147852"><ele>97.0</ele><time>2026-04-03T10:23:30.276Z</time></trkpt><trkpt lat="45.20132" lon="8.8147417"><ele>97.0</ele><time>2026-04-03T10:23:31.276Z</time></trkpt><trkpt lat="45.2014667" lon="8.8146933"><ele>97.0</ele><time>2026-04-03T10:23:32.276Z</time></trkpt><trkpt lat="45.2016117" lon="8.8146467"><ele>96.6</ele><time>2026-04-03T10:23:33.276Z</time></trkpt><trkpt lat="45.2017433" lon="8.8146133"><ele>96.19999999999999</ele><time>2026-04-03T10:23:34.277Z</time></trkpt><trkpt lat="45.2018617" lon="8.81459"><ele>95.8</ele><time>2026-04-03T10:23:35.277Z</time></trkpt><trkpt lat="45.2019633" lon="8.8145817"><ele>95.4</ele><time>2026-04-03T10:23:36.277Z</time></trkpt><trkpt lat="45.20205" lon="8.814595"><ele>95.0</ele><time>2026-04-03T10:23:37.277Z</time></trkpt><trkpt lat="45.2021233" lon="8.8146233"><ele>95.0</ele><time>2026-04-03T10:23:38.277Z</time></trkpt><trkpt lat="45.2021833" lon="8.81466"><ele>95.0</ele><time>2026-04-03T10:23:39.277Z</time></trkpt><trkpt lat="45.2022633" lon="8.8147717"><ele>95.0</ele><time>2026-04-03T10:23:41.277Z</time></trkpt><trkpt lat="45.2023133" lon="8.8148967"><ele>95.0</ele><time>2026-04-03T10:23:43.277Z</time></trkpt><trkpt lat="45.2023583" lon="8.8150367"><ele>95.0</ele><time>2026-04-03T10:23:45.276Z</time></trkpt><trkpt lat="45.2023867" lon="8.8151383"><ele>95.0</ele><time>2026-04-03T10:23:46.276Z</time></trkpt><trkpt lat="45.2024183" lon="8.815265"><ele>95.0</ele><time>2026-04-03T10:23:47.277Z</time></trkpt><trkpt lat="45.2024533" lon="8.8154183"><ele>95.0</ele><time>2026-04-03T10:23:48.276Z</time></trkpt><trkpt lat="45.202495" lon="8.815595"><ele>95.0</ele><time>2026-04-03T10:23:49.277Z</time></trkpt><trkpt lat="45.20254" lon="8.8157883"><ele>95.0</ele><time>2026-04-03T10:23:50.277Z</time></trkpt><trkpt lat="45.2025883" lon="8.815995"><ele>95.0</ele><time>2026-04-03T10:23:51.276Z</time></trkpt><trkpt lat="45.2026383" lon="8.8162167"><ele>95.0</ele><time>2026-04-03T10:23:52.277Z</time></trkpt><trkpt lat="45.20269" lon="8.816445"><ele>95.0</ele><time>2026-04-03T10:23:53.277Z</time></trkpt><trkpt lat="45.2027467" lon="8.8166767"><ele>95.0</ele><time>2026-04-03T10:23:54.276Z</time></trkpt><trkpt lat="45.2028033" lon="8.8169117"><ele>95.0</ele><time>2026-04-03T10:23:55.277Z</time></trkpt><trkpt lat="45.2028567" lon="8.817145"><ele>95.0</ele><time>2026-04-03T10:23:56.277Z</time></trkpt><trkpt lat="45.2029117" lon="8.8173767"><ele>95.0</ele><time>2026-04-03T10:23:57.277Z</time></trkpt><trkpt lat="45.202965" lon="8.8176033"><ele>95.0</ele><time>2026-04-03T10:23:58.277Z</time></trkpt><trkpt lat="45.2030167" lon="8.8178283"><ele>95.33333333333334</ele><time>2026-04-03T10:23:59.277Z</time></trkpt><trkpt lat="45.2030683" lon="8.81805"><ele>95.66666666666667</ele><time>2026-04-03T10:24:00.277Z</time></trkpt><trkpt lat="45.2031183" lon="8.8182667"><ele>96.0</ele><time>2026-04-03T10:24:01.277Z</time></trkpt><trkpt lat="45.2031683" lon="8.8184767"><ele>96.0</ele><time>2026-04-03T10:24:02.276Z</time></trkpt><trkpt lat="45.2032183" lon="8.8186817"><ele>96.0</ele><time>2026-04-03T10:24:03.276Z</time></trkpt><trkpt lat="45.203265" lon="8.8188783"><ele>96.0</ele><time>2026-04-03T10:24:04.276Z</time></trkpt><trkpt lat="45.2033083" lon="8.8190667"><ele>96.0</ele><time>2026-04-03T10:24:05.276Z</time></trkpt><trkpt lat="45.2033483" lon="8.81924"><ele>96.19999999999999</ele><time>2026-04-03T10:24:06.276Z</time></trkpt><trkpt lat="45.203385" lon="8.8193933"><ele>96.39999999999999</ele><time>2026-04-03T10:24:07.276Z</time></trkpt><trkpt lat="45.203415" lon="8.8195267"><ele>96.6</ele><time>2026-04-03T10:24:08.276Z</time></trkpt><trkpt lat="45.20344" lon="8.8196467"><ele>96.8</ele><time>2026-04-03T10:24:09.276Z</time></trkpt><trkpt lat="45.203465" lon="8.8197567"><ele>97.0</ele><time>2026-04-03T10:24:10.275Z</time></trkpt><trkpt lat="45.203495" lon="8.819865"><ele>97.0</ele><time>2026-04-03T10:24:11.275Z</time></trkpt><trkpt lat="45.203525" lon="8.8199833"><ele>97.0</ele><time>2026-04-03T10:24:12.276Z</time></trkpt><trkpt lat="45.2035583" lon="8.8201183"><ele>97.0</ele><time>2026-04-03T10:24:13.276Z</time></trkpt><trkpt lat="45.2035967" lon="8.8202667"><ele>97.0</ele><time>2026-04-03T10:24:14.276Z</time></trkpt><trkpt lat="45.2036383" lon="8.820425"><ele>97.0</ele><time>2026-04-03T10:24:15.276Z</time></trkpt><trkpt lat="45.2036767" lon="8.8205817"><ele>97.00000000000001</ele><time>2026-04-03T10:24:16.276Z</time></trkpt><trkpt lat="45.2037133" lon="8.82072"><ele>97.0</ele><time>2026-04-03T10:24:17.275Z</time></trkpt><trkpt lat="45.20375" lon="8.82084"><ele>97.0</ele><time>2026-04-03T10:24:18.275Z</time></trkpt><trkpt lat="45.20379" lon="8.82094"><ele>97.0</ele><time>2026-04-03T10:24:19.275Z</time></trkpt><trkpt lat="45.2038383" lon="8.82103"><ele>97.00000000000001</ele><time>2026-04-03T10:24:20.276Z</time></trkpt><trkpt lat="45.2039033" lon="8.8211083"><ele>97.0</ele><time>2026-04-03T10:24:21.276Z</time></trkpt><trkpt lat="45.2039867" lon="8.8211833"><ele>97.0</ele><time>2026-04-03T10:24:22.276Z</time></trkpt><trkpt lat="45.20408" lon="8.8212567"><ele>97.0</ele><time>2026-04-03T10:24:23.276Z</time></trkpt><trkpt lat="45.2041733" lon="8.8213367"><ele>97.0</ele><time>2026-04-03T10:24:24.275Z</time></trkpt><trkpt lat="45.204255" lon="8.821425"><ele>97.0</ele><time>2026-04-03T10:24:25.276Z</time></trkpt><trkpt lat="45.2043183" lon="8.8215267"><ele>97.0</ele><time>2026-04-03T10:24:26.276Z</time></trkpt><trkpt lat="45.2043567" lon="8.821645"><ele>97.0</ele><time>2026-04-03T10:24:27.276Z</time></trkpt><trkpt lat="45.2043717" lon="8.8217867"><ele>97.0</ele><time>2026-04-03T10:24:28.275Z</time></trkpt><trkpt lat="45.2043767" lon="8.8219533"><ele>97.0</ele><time>2026-04-03T10:24:29.276Z</time></trkpt><trkpt lat="45.2043817" lon="8.822135"><ele>97.0</ele><time>2026-04-03T10:24:30.275Z</time></trkpt><trkpt lat="45.2043867" lon="8.822335"><ele>97.0</ele><time>2026-04-03T10:24:31.275Z</time></trkpt><trkpt lat="45.2043967" lon="8.8225467"><ele>97.0</ele><time>2026-04-03T10:24:32.276Z</time></trkpt><trkpt lat="45.204405" lon="8.8227683"><ele>97.0</ele><time>2026-04-03T10:24:33.275Z</time></trkpt><trkpt lat="45.2044167" lon="8.8229967"><ele>96.66666666666667</ele><time>2026-04-03T10:24:34.276Z</time></trkpt><trkpt lat="45.2044283" lon="8.8232317"><ele>96.33333333333334</ele><time>2026-04-03T10:24:35.276Z</time></trkpt><trkpt lat="45.2044383" lon="8.82347"><ele>96.0</ele><time>2026-04-03T10:24:36.276Z</time></trkpt><trkpt lat="45.2044517" lon="8.82371"><ele>96.0</ele><time>2026-04-03T10:24:37.276Z</time></trkpt><trkpt lat="45.204465" lon="8.8239467"><ele>96.0</ele><time>2026-04-03T10:24:38.276Z</time></trkpt><trkpt lat="45.204475" lon="8.8241667"><ele>96.0</ele><time>2026-04-03T10:24:39.275Z</time></trkpt><trkpt lat="45.2044833" lon="8.82436"><ele>96.0</ele><time>2026-04-03T10:24:40.275Z</time></trkpt><trkpt lat="45.2044867" lon="8.8245033"><ele>96.0</ele><time>2026-04-03T10:24:41.276Z</time></trkpt><trkpt lat="45.2044883" lon="8.824605"><ele>96.0</ele><time>2026-04-03T10:24:42.275Z</time></trkpt><trkpt lat="45.2045" lon="8.8247033"><ele>96.0</ele><time>2026-04-03T10:24:44.275Z</time></trkpt><trkpt lat="45.2045883" lon="8.8247333"><ele>96.0</ele><time>2026-04-03T10:24:48.275Z</time></trkpt><trkpt lat="45.2046983" lon="8.8247017"><ele>96.0</ele><time>2026-04-03T10:24:50.276Z</time></trkpt><trkpt lat="45.204765" lon="8.8246767"><ele>96.66666666666667</ele><time>2026-04-03T10:24:51.276Z</time></trkpt><trkpt lat="45.2048917" lon="8.8246583"><ele>97.33333333333334</ele><time>2026-04-03T10:24:53.275Z</time></trkpt><trkpt lat="45.2049617" lon="8.8246617"><ele>98.0</ele><time>2026-04-03T10:24:54.275Z</time></trkpt><trkpt lat="45.205035" lon="8.8246733"><ele>98.66666666666667</ele><time>2026-04-03T10:24:55.275Z</time></trkpt><trkpt lat="45.2051083" lon="8.8246933"><ele>99.33333333333334</ele><time>2026-04-03T10:24:56.275Z</time></trkpt><trkpt lat="45.2051867" lon="8.8247233"><ele>100.0</ele><time>2026-04-03T10:24:57.275Z</time></trkpt><trkpt lat="45.2052717" lon="8.8247617"><ele>100.0</ele><time>2026-04-03T10:24:58.275Z</time></trkpt><trkpt lat="45.2053617" lon="8.8248117"><ele>100.0</ele><time>2026-04-03T10:24:59.275Z</time></trkpt><trkpt lat="45.2054583" lon="8.8248617"><ele>100.0</ele><time>2026-04-03T10:25:00.276Z</time></trkpt><trkpt lat="45.2055617" lon="8.8249167"><ele>100.0</ele><time>2026-04-03T10:25:01.275Z</time></trkpt><trkpt lat="45.20567" lon="8.8249767"><ele>100.0</ele><time>2026-04-03T10:25:02.276Z</time></trkpt><trkpt lat="45.2057817" lon="8.8250417"><ele>99.0</ele><time>2026-04-03T10:25:03.275Z</time></trkpt><trkpt lat="45.2058983" lon="8.825105"><ele>98.0</ele><time>2026-04-03T10:25:04.276Z</time></trkpt><trkpt lat="45.206015" lon="8.8251667"><ele>97.0</ele><time>2026-04-03T10:25:05.275Z</time></trkpt><trkpt lat="45.2061317" lon="8.8252283"><ele>96.0</ele><time>2026-04-03T10:25:06.275Z</time></trkpt><trkpt lat="45.2062483" lon="8.82529"><ele>95.75</ele><time>2026-04-03T10:25:07.275Z</time></trkpt><trkpt lat="45.2063667" lon="8.8253467"><ele>95.5</ele><time>2026-04-03T10:25:08.276Z</time></trkpt><trkpt lat="45.2064867" lon="8.8254017"><ele>95.25</ele><time>2026-04-03T10:25:09.275Z</time></trkpt><trkpt lat="45.2066067" lon="8.8254467"><ele>95.0</ele><time>2026-04-03T10:25:10.276Z</time></trkpt><trkpt lat="45.206725" lon="8.825485"><ele>95.0</ele><time>2026-04-03T10:25:11.275Z</time></trkpt><trkpt lat="45.2068333" lon="8.825515"><ele>95.0</ele><time>2026-04-03T10:25:12.276Z</time></trkpt><trkpt lat="45.2069267" lon="8.8255367"><ele>95.0</ele><time>2026-04-03T10:25:13.276Z</time></trkpt><trkpt lat="45.2070067" lon="8.8255583"><ele>95.0</ele><time>2026-04-03T10:25:14.275Z</time></trkpt><trkpt lat="45.2070767" lon="8.825585"><ele>95.0</ele><time>2026-04-03T10:25:15.276Z</time></trkpt><trkpt lat="45.2071683" lon="8.8256833"><ele>95.0</ele><time>2026-04-03T10:25:17.275Z</time></trkpt><trkpt lat="45.207195" lon="8.82584"><ele>95.0</ele><time>2026-04-03T10:25:19.275Z</time></trkpt><trkpt lat="45.20719" lon="8.8259383"><ele>95.0</ele><time>2026-04-03T10:25:20.276Z</time></trkpt><trkpt lat="45.2071767" lon="8.826065"><ele>95.0</ele><time>2026-04-03T10:25:21.276Z</time></trkpt><trkpt lat="45.2071567" lon="8.82621"><ele>95.0</ele><time>2026-04-03T10:25:22.275Z</time></trkpt><trkpt lat="45.2071333" lon="8.82635"><ele>95.0</ele><time>2026-04-03T10:25:23.276Z</time></trkpt><trkpt lat="45.2071133" lon="8.826475"><ele>95.0</ele><time>2026-04-03T10:25:24.275Z</time></trkpt><trkpt lat="45.2070992" lon="8.8265898"><ele>95.0</ele><time>2026-04-03T10:25:25.275Z</time></trkpt><trkpt lat="45.2070973" lon="8.8266954"><ele>95.0</ele><time>2026-04-03T10:25:26.275Z</time></trkpt><trkpt lat="45.2071095" lon="8.8267858"><ele>95.0</ele><time>2026-04-03T10:25:27.276Z</time></trkpt><trkpt lat="45.2071382" lon="8.8268657"><ele>95.0</ele><time>2026-04-03T10:25:28.276Z</time></trkpt><trkpt lat="45.2071771" lon="8.826942"><ele>95.0</ele><time>2026-04-03T10:25:29.275Z</time></trkpt><trkpt lat="45.2072224" lon="8.8270106"><ele>95.0</ele><time>2026-04-03T10:25:30.276Z</time></trkpt><trkpt lat="45.2072771" lon="8.8270687"><ele>95.0</ele><time>2026-04-03T10:25:31.275Z</time></trkpt><trkpt lat="45.2073438" lon="8.8271269"><ele>95.0</ele><time>2026-04-03T10:25:32.276Z</time></trkpt><trkpt lat="45.2074221" lon="8.8271903"><ele>95.0</ele><time>2026-04-03T10:25:33.275Z</time></trkpt><trkpt lat="45.2075074" lon="8.82726"><ele>95.0</ele><time>2026-04-03T10:25:34.275Z</time></trkpt><trkpt lat="45.2075951" lon="8.827334"><ele>95.0</ele><time>2026-04-03T10:25:35.275Z</time></trkpt><trkpt lat="45.2076812" lon="8.8274029"><ele>95.0</ele><time>2026-04-03T10:25:36.276Z</time></trkpt><trkpt lat="45.2077669" lon="8.827464"><ele>95.0</ele><time>2026-04-03T10:25:37.276Z</time></trkpt><trkpt lat="45.2078544" lon="8.8275152"><ele>95.0</ele><time>2026-04-03T10:25:38.275Z</time></trkpt><trkpt lat="45.2079485" lon="8.8275643"><ele>95.0</ele><time>2026-04-03T10:25:39.275Z</time></trkpt><trkpt lat="45.2080467" lon="8.8276175"><ele>95.0</ele><time>2026-04-03T10:25:40.275Z</time></trkpt><trkpt lat="45.208146" lon="8.827675"><ele>95.2</ele><time>2026-04-03T10:25:41.276Z</time></trkpt><trkpt lat="45.2082476" lon="8.827737"><ele>95.4</ele><time>2026-04-03T10:25:42.276Z</time></trkpt><trkpt lat="45.2083511" lon="8.8278001"><ele>95.6</ele><time>2026-04-03T10:25:43.276Z</time></trkpt><trkpt lat="45.2084521" lon="8.8278662"><ele>95.8</ele><time>2026-04-03T10:25:44.275Z</time></trkpt><trkpt lat="45.2085505" lon="8.8279306"><ele>96.0</ele><time>2026-04-03T10:25:45.276Z</time></trkpt><trkpt lat="45.2086514" lon="8.827994"><ele>96.0</ele><time>2026-04-03T10:25:46.276Z</time></trkpt><trkpt lat="45.2087504" lon="8.8280591"><ele>96.0</ele><time>2026-04-03T10:25:47.276Z</time></trkpt><trkpt lat="45.2088459" lon="8.8281208"><ele>96.0</ele><time>2026-04-03T10:25:48.276Z</time></trkpt><trkpt lat="45.2089405" lon="8.8281747"><ele>96.0</ele><time>2026-04-03T10:25:49.275Z</time></trkpt><trkpt lat="45.2090356" lon="8.8282251"><ele>96.0</ele><time>2026-04-03T10:25:50.276Z</time></trkpt><trkpt lat="45.209133" lon="8.8282697"><ele>96.0</ele><time>2026-04-03T10:25:51.276Z</time></trkpt><trkpt lat="45.2092287" lon="8.8283138"><ele>96.0</ele><time>2026-04-03T10:25:52.275Z</time></trkpt><trkpt lat="45.2093265" lon="8.8283589"><ele>96.0</ele><time>2026-04-03T10:25:53.276Z</time></trkpt><trkpt lat="45.2094237" lon="8.8283994"><ele>96.0</ele><time>2026-04-03T10:25:54.276Z</time></trkpt><trkpt lat="45.2095157" lon="8.8284347"><ele>96.0</ele><time>2026-04-03T10:25:55.276Z</time></trkpt><trkpt lat="45.2095991" lon="8.8284675"><ele>96.0</ele><time>2026-04-03T10:25:56.276Z</time></trkpt><trkpt lat="45.2096759" lon="8.8284999"><ele>96.0</ele><time>2026-04-03T10:25:57.276Z</time></trkpt><trkpt lat="45.2097506" lon="8.8285343"><ele>96.0</ele><time>2026-04-03T10:25:58.275Z</time></trkpt><trkpt lat="45.2098234" lon="8.8285665"><ele>96.0</ele><time>2026-04-03T10:25:59.276Z</time></trkpt><trkpt lat="45.2098938" lon="8.8285969"><ele>96.0</ele><time>2026-04-03T10:26:00.276Z</time></trkpt><trkpt lat="45.2099701" lon="8.8286266"><ele>96.0</ele><time>2026-04-03T10:26:01.276Z</time></trkpt><trkpt lat="45.2100509" lon="8.8286549"><ele>96.0</ele><time>2026-04-03T10:26:02.275Z</time></trkpt><trkpt lat="45.2101274" lon="8.8286814"><ele>96.0</ele><time>2026-04-03T10:26:03.275Z</time></trkpt><trkpt lat="45.2102003" lon="8.8287074"><ele>96.0</ele><time>2026-04-03T10:26:04.275Z</time></trkpt><trkpt lat="45.2102724" lon="8.8287356"><ele>96.0</ele><time>2026-04-03T10:26:05.275Z</time></trkpt><trkpt lat="45.2103464" lon="8.8287645"><ele>96.0</ele><time>2026-04-03T10:26:06.276Z</time></trkpt><trkpt lat="45.2104216" lon="8.8287938"><ele>96.0</ele><time>2026-04-03T10:26:07.276Z</time></trkpt><trkpt lat="45.2104978" lon="8.828827"><ele>96.0</ele><time>2026-04-03T10:26:08.276Z</time></trkpt><trkpt lat="45.2105776" lon="8.8288608"><ele>96.0</ele><time>2026-04-03T10:26:09.275Z</time></trkpt><trkpt lat="45.2106611" lon="8.8288941"><ele>96.0</ele><time>2026-04-03T10:26:10.276Z</time></trkpt><trkpt lat="45.2107463" lon="8.8289276"><ele>96.0</ele><time>2026-04-03T10:26:11.275Z</time></trkpt><trkpt lat="45.2108305" lon="8.8289623"><ele>96.0</ele><time>2026-04-03T10:26:12.275Z</time></trkpt><trkpt lat="45.2109148" lon="8.8289977"><ele>96.0</ele><time>2026-04-03T10:26:13.276Z</time></trkpt><trkpt lat="45.2109995" lon="8.8290298"><ele>96.16666666666667</ele><time>2026-04-03T10:26:14.276Z</time></trkpt><trkpt lat="45.2110846" lon="8.8290611"><ele>96.33333333333334</ele><time>2026-04-03T10:26:15.275Z</time></trkpt><trkpt lat="45.2111691" lon="8.8290919"><ele>96.5</ele><time>2026-04-03T10:26:16.276Z</time></trkpt><trkpt lat="45.2112515" lon="8.8291203"><ele>96.66666666666667</ele><time>2026-04-03T10:26:17.276Z</time></trkpt><trkpt lat="45.2113333" lon="8.829148"><ele>96.83333333333334</ele><time>2026-04-03T10:26:18.275Z</time></trkpt><trkpt lat="45.2114122" lon="8.8291766"><ele>97.0</ele><time>2026-04-03T10:26:19.276Z</time></trkpt><trkpt lat="45.2114877" lon="8.8292035"><ele>97.14285714285714</ele><time>2026-04-03T10:26:20.275Z</time></trkpt><trkpt lat="45.2115564" lon="8.8292286"><ele>97.28571428571429</ele><time>2026-04-03T10:26:21.275Z</time></trkpt><trkpt lat="45.2116497" lon="8.8292707"><ele>97.42857142857143</ele><time>2026-04-03T10:26:23.276Z</time></trkpt><trkpt lat="45.2117126" lon="8.829303"><ele>97.57142857142857</ele><time>2026-04-03T10:26:25.276Z</time></trkpt><trkpt lat="45.2117771" lon="8.8293416"><ele>97.71428571428572</ele><time>2026-04-03T10:26:27.277Z</time></trkpt><trkpt lat="45.2118343" lon="8.8293906"><ele>97.85714285714286</ele><time>2026-04-03T10:26:29.497Z</time></trkpt><trkpt lat="45.2118592" lon="8.8294802"><ele>98.0</ele><time>2026-04-03T10:26:33.525Z</time></trkpt><trkpt lat="45.2118423" lon="8.8295687"><ele>98.0</ele><time>2026-04-03T10:26:35.52Z</time></trkpt><trkpt lat="45.211875" lon="8.8298344"><ele>98.0</ele><time>2026-04-03T10:26:38.276Z</time></trkpt><trkpt lat="45.2118846" lon="8.8299385"><ele>98.0</ele><time>2026-04-03T10:26:39.277Z</time></trkpt><trkpt lat="45.2118927" lon="8.8300366"><ele>98.0</ele><time>2026-04-03T10:26:40.277Z</time></trkpt><trkpt lat="45.2118996" lon="8.8301357"><ele>98.0</ele><time>2026-04-03T10:26:41.277Z</time></trkpt><trkpt lat="45.2119072" lon="8.8302392"><ele>97.66666666666666</ele><time>2026-04-03T10:26:42.277Z</time></trkpt><trkpt lat="45.2119127" lon="8.8303473"><ele>97.33333333333333</ele><time>2026-04-03T10:26:43.277Z</time></trkpt><trkpt lat="45.2119176" lon="8.8304592"><ele>97.0</ele><time>2026-04-03T10:26:44.276Z</time></trkpt><trkpt lat="45.2119215" lon="8.8305757"><ele>96.66666666666666</ele><time>2026-04-03T10:26:45.277Z</time></trkpt><trkpt lat="45.2119263" lon="8.8306988"><ele>96.33333333333333</ele><time>2026-04-03T10:26:46.276Z</time></trkpt><trkpt lat="45.211934" lon="8.8308269"><ele>96.0</ele><time>2026-04-03T10:26:47.276Z</time></trkpt><trkpt lat="45.211945" lon="8.8309606"><ele>96.0</ele><time>2026-04-03T10:26:48.276Z</time></trkpt><trkpt lat="45.211955" lon="8.8311"><ele>96.0</ele><time>2026-04-03T10:26:49.277Z</time></trkpt><trkpt lat="45.21196" lon="8.8312367"><ele>96.0</ele><time>2026-04-03T10:26:50.277Z</time></trkpt><trkpt lat="45.2119667" lon="8.8313717"><ele>96.0</ele><time>2026-04-03T10:26:51.277Z</time></trkpt><trkpt lat="45.2119767" lon="8.831505"><ele>96.0</ele><time>2026-04-03T10:26:52.277Z</time></trkpt><trkpt lat="45.2119867" lon="8.8316417"><ele>96.0</ele><time>2026-04-03T10:26:53.276Z</time></trkpt><trkpt lat="45.2119967" lon="8.8317833"><ele>96.0</ele><time>2026-04-03T10:26:54.276Z</time></trkpt><trkpt lat="45.2120033" lon="8.8319267"><ele>96.0</ele><time>2026-04-03T10:26:55.277Z</time></trkpt><trkpt lat="45.2120117" lon="8.83207"><ele>96.0</ele><time>2026-04-03T10:26:56.276Z</time></trkpt><trkpt lat="45.2120217" lon="8.8322117"><ele>96.0</ele><time>2026-04-03T10:26:57.277Z</time></trkpt><trkpt lat="45.21203" lon="8.8323483"><ele>96.0</ele><time>2026-04-03T10:26:58.276Z</time></trkpt><trkpt lat="45.2120433" lon="8.8324883"><ele>96.0</ele><time>2026-04-03T10:26:59.276Z</time></trkpt><trkpt lat="45.2120567" lon="8.8326333"><ele>96.0</ele><time>2026-04-03T10:27:00.276Z</time></trkpt><trkpt lat="45.2120717" lon="8.8327817"><ele>96.0</ele><time>2026-04-03T10:27:01.277Z</time></trkpt><trkpt lat="45.21209" lon="8.8329383"><ele>96.0</ele><time>2026-04-03T10:27:02.277Z</time></trkpt><trkpt lat="45.2121067" lon="8.8330983"><ele>96.19999999999999</ele><time>2026-04-03T10:27:03.277Z</time></trkpt><trkpt lat="45.2121217" lon="8.83326"><ele>96.39999999999999</ele><time>2026-04-03T10:27:04.277Z</time></trkpt><trkpt lat="45.2121317" lon="8.8334183"><ele>96.6</ele><time>2026-04-03T10:27:05.276Z</time></trkpt><trkpt lat="45.21214" lon="8.833575"><ele>96.8</ele><time>2026-04-03T10:27:06.276Z</time></trkpt><trkpt lat="45.2121417" lon="8.8337317"><ele>97.0</ele><time>2026-04-03T10:27:07.276Z</time></trkpt><trkpt lat="45.21214" lon="8.8338933"><ele>97.19999999999999</ele><time>2026-04-03T10:27:08.277Z</time></trkpt><trkpt lat="45.2121333" lon="8.8340567"><ele>97.4</ele><time>2026-04-03T10:27:09.277Z</time></trkpt><trkpt lat="45.212125" lon="8.8342083"><ele>97.6</ele><time>2026-04-03T10:27:10.277Z</time></trkpt><trkpt lat="45.2121167" lon="8.834345"><ele>97.80000000000001</ele><time>2026-04-03T10:27:11.276Z</time></trkpt><trkpt lat="45.2121083" lon="8.83448"><ele>98.0</ele><time>2026-04-03T10:27:12.276Z</time></trkpt><trkpt lat="45.2120983" lon="8.834625"><ele>98.0</ele><time>2026-04-03T10:27:13.276Z</time></trkpt><trkpt lat="45.2120883" lon="8.8347733"><ele>98.0</ele><time>2026-04-03T10:27:14.277Z</time></trkpt><trkpt lat="45.2120767" lon="8.834935"><ele>98.0</ele><time>2026-04-03T10:27:15.276Z</time></trkpt><trkpt lat="45.2120683" lon="8.835105"><ele>98.0</ele><time>2026-04-03T10:27:16.276Z</time></trkpt><trkpt lat="45.212055" lon="8.8352767"><ele>97.5</ele><time>2026-04-03T10:27:17.276Z</time></trkpt><trkpt lat="45.212045" lon="8.8354433"><ele>97.0</ele><time>2026-04-03T10:27:18.277Z</time></trkpt><trkpt lat="45.212035" lon="8.83561"><ele>96.5</ele><time>2026-04-03T10:27:19.277Z</time></trkpt><trkpt lat="45.2120233" lon="8.8357717"><ele>96.0</ele><time>2026-04-03T10:27:20.277Z</time></trkpt><trkpt lat="45.212015" lon="8.8359233"><ele>96.33333333333333</ele><time>2026-04-03T10:27:21.277Z</time></trkpt><trkpt lat="45.2120067" lon="8.8360617"><ele>96.66666666666666</ele><time>2026-04-03T10:27:22.277Z</time></trkpt><trkpt lat="45.2119967" lon="8.8361833"><ele>97.0</ele><time>2026-04-03T10:27:23.276Z</time></trkpt><trkpt lat="45.2119867" lon="8.8362867"><ele>97.33333333333333</ele><time>2026-04-03T10:27:24.277Z</time></trkpt><trkpt lat="45.2119683" lon="8.83642"><ele>97.66666666666666</ele><time>2026-04-03T10:27:26.276Z</time></trkpt><trkpt lat="45.2119583" lon="8.83651"><ele>98.0</ele><time>2026-04-03T10:27:29.277Z</time></trkpt><trkpt lat="45.2119533" lon="8.836645"><ele>98.0</ele><time>2026-04-03T10:27:32.277Z</time></trkpt><trkpt lat="45.21195" lon="8.8367717"><ele>98.0</ele><time>2026-04-03T10:27:34.276Z</time></trkpt><trkpt lat="45.2119483" lon="8.8368833"><ele>98.0</ele><time>2026-04-03T10:27:36.277Z</time></trkpt><trkpt lat="45.211945" lon="8.8369733"><ele>98.0</ele><time>2026-04-03T10:28:23.277Z</time></trkpt><trkpt lat="45.2119483" lon="8.83707"><ele>98.0</ele><time>2026-04-03T10:28:26.277Z</time></trkpt><trkpt lat="45.2119517" lon="8.83716"><ele>98.0</ele><time>2026-04-03T10:28:28.277Z</time></trkpt><trkpt lat="45.2119483" lon="8.8372617"><ele>98.0</ele><time>2026-04-03T10:28:30.277Z</time></trkpt><trkpt lat="45.21195" lon="8.8373767"><ele>98.0</ele><time>2026-04-03T10:28:32.277Z</time></trkpt><trkpt lat="45.2119433" lon="8.8375383"><ele>98.0</ele><time>2026-04-03T10:28:34.276Z</time></trkpt><trkpt lat="45.2119367" lon="8.83765"><ele>98.0</ele><time>2026-04-03T10:28:35.277Z</time></trkpt><trkpt lat="45.211925" lon="8.8377867"><ele>98.0</ele><time>2026-04-03T10:28:36.276Z</time></trkpt><trkpt lat="45.2119183" lon="8.8379483"><ele>98.0</ele><time>2026-04-03T10:28:37.277Z</time></trkpt><trkpt lat="45.2119117" lon="8.8381183"><ele>97.99999999999999</ele><time>2026-04-03T10:28:38.276Z</time></trkpt><trkpt lat="45.2119033" lon="8.838275"><ele>98.0</ele><time>2026-04-03T10:28:39.276Z</time></trkpt><trkpt lat="45.211895" lon="8.838415"><ele>98.0</ele><time>2026-04-03T10:28:40.276Z</time></trkpt><trkpt lat="45.2118883" lon="8.8385317"><ele>98.0</ele><time>2026-04-03T10:28:41.277Z</time></trkpt><trkpt lat="45.2118883" lon="8.83863"><ele>97.99999999999999</ele><time>2026-04-03T10:28:42.276Z</time></trkpt><trkpt lat="45.2118933" lon="8.8387217"><ele>98.0</ele><time>2026-04-03T10:28:43.277Z</time></trkpt><trkpt lat="45.2118983" lon="8.8388967"><ele>97.99999999999999</ele><time>2026-04-03T10:28:45.277Z</time></trkpt><trkpt lat="45.211905" lon="8.8389883"><ele>98.0</ele><time>2026-04-03T10:28:46.277Z</time></trkpt><trkpt lat="45.2119183" lon="8.8390917"><ele>98.0</ele><time>2026-04-03T10:28:47.277Z</time></trkpt><trkpt lat="45.2119283" lon="8.8392033"><ele>98.0</ele><time>2026-04-03T10:28:48.277Z</time></trkpt><trkpt lat="45.211935" lon="8.8393167"><ele>97.99999999999999</ele><time>2026-04-03T10:28:49.277Z</time></trkpt><trkpt lat="45.211945" lon="8.8394317"><ele>98.0</ele><time>2026-04-03T10:28:50.276Z</time></trkpt><trkpt lat="45.2119467" lon="8.83955"><ele>98.0</ele><time>2026-04-03T10:28:51.277Z</time></trkpt><trkpt lat="45.2119433" lon="8.8396767"><ele>98.0</ele><time>2026-04-03T10:28:52.277Z</time></trkpt><trkpt lat="45.2119367" lon="8.8398167"><ele>98.0</ele><time>2026-04-03T10:28:53.277Z</time></trkpt><trkpt lat="45.211935" lon="8.8399717"><ele>98.0</ele><time>2026-04-03T10:28:54.277Z</time></trkpt><trkpt lat="45.2119367" lon="8.8401283"><ele>98.0</ele><time>2026-04-03T10:28:55.277Z</time></trkpt><trkpt lat="45.211945" lon="8.8402883"><ele>98.0</ele><time>2026-04-03T10:28:56.277Z</time></trkpt><trkpt lat="45.2119533" lon="8.8404483"><ele>98.0</ele><time>2026-04-03T10:28:57.277Z</time></trkpt><trkpt lat="45.21196" lon="8.840605"><ele>98.0</ele><time>2026-04-03T10:28:58.276Z</time></trkpt><trkpt lat="45.2119733" lon="8.8407633"><ele>98.0</ele><time>2026-04-03T10:28:59.277Z</time></trkpt><trkpt lat="45.2119867" lon="8.8409233"><ele>98.0</ele><time>2026-04-03T10:29:00.276Z</time></trkpt><trkpt lat="45.212005" lon="8.8410817"><ele>98.0</ele><time>2026-04-03T10:29:01.276Z</time></trkpt><trkpt lat="45.2120267" lon="8.8412417"><ele>98.0</ele><time>2026-04-03T10:29:02.277Z</time></trkpt><trkpt lat="45.2120533" lon="8.8413933"><ele>98.0</ele><time>2026-04-03T10:29:03.277Z</time></trkpt><trkpt lat="45.2120783" lon="8.84153"><ele>98.0</ele><time>2026-04-03T10:29:04.277Z</time></trkpt><trkpt lat="45.2120983" lon="8.8416533"><ele>98.0</ele><time>2026-04-03T10:29:05.276Z</time></trkpt><trkpt lat="45.2121133" lon="8.84176"><ele>98.0</ele><time>2026-04-03T10:29:06.276Z</time></trkpt><trkpt lat="45.212135" lon="8.8419067"><ele>98.0</ele><time>2026-04-03T10:29:08.277Z</time></trkpt><trkpt lat="45.2121533" lon="8.84202"><ele>98.0</ele><time>2026-04-03T10:29:10.276Z</time></trkpt><trkpt lat="45.21217" lon="8.84215"><ele>98.0</ele><time>2026-04-03T10:29:12.276Z</time></trkpt><trkpt lat="45.212195" lon="8.842305"><ele>98.0</ele><time>2026-04-03T10:29:14.277Z</time></trkpt><trkpt lat="45.212225" lon="8.8424567"><ele>97.99999999999999</ele><time>2026-04-03T10:29:16.277Z</time></trkpt><trkpt lat="45.2122517" lon="8.8426083"><ele>98.0</ele><time>2026-04-03T10:29:18.277Z</time></trkpt><trkpt lat="45.212275" lon="8.8427133"><ele>98.0</ele><time>2026-04-03T10:29:21.277Z</time></trkpt><trkpt lat="45.2122967" lon="8.8428333"><ele>98.0</ele><time>2026-04-03T10:29:24.277Z</time></trkpt><trkpt lat="45.2123117" lon="8.84293"><ele>97.99999999999999</ele><time>2026-04-03T10:29:26.277Z</time></trkpt><trkpt lat="45.2123283" lon="8.8430367"><ele>98.0</ele><time>2026-04-03T10:29:28.275Z</time></trkpt><trkpt lat="45.2123433" lon="8.8431417"><ele>97.80000000000001</ele><time>2026-04-03T10:29:30.276Z</time></trkpt><trkpt lat="45.2123633" lon="8.8432533"><ele>97.6</ele><time>2026-04-03T10:29:32.275Z</time></trkpt><trkpt lat="45.2123833" lon="8.8433667"><ele>97.4</ele><time>2026-04-03T10:29:34.276Z</time></trkpt><trkpt lat="45.2124067" lon="8.8435"><ele>97.19999999999999</ele><time>2026-04-03T10:29:36.275Z</time></trkpt><trkpt lat="45.2124433" lon="8.8436817"><ele>97.0</ele><time>2026-04-03T10:29:38.276Z</time></trkpt><trkpt lat="45.212465" lon="8.843785"><ele>97.00000000000001</ele><time>2026-04-03T10:29:39.275Z</time></trkpt><trkpt lat="45.21249" lon="8.843895"><ele>97.0</ele><time>2026-04-03T10:29:40.275Z</time></trkpt><trkpt lat="45.2125167" lon="8.84401"><ele>97.0</ele><time>2026-04-03T10:29:41.275Z</time></trkpt><trkpt lat="45.212545" lon="8.84412"><ele>97.0</ele><time>2026-04-03T10:29:42.276Z</time></trkpt><trkpt lat="45.2125717" lon="8.84423"><ele>97.00000000000001</ele><time>2026-04-03T10:29:43.276Z</time></trkpt><trkpt lat="45.212595" lon="8.84434"><ele>97.0</ele><time>2026-04-03T10:29:44.276Z</time></trkpt><trkpt lat="45.2126133" lon="8.844445"><ele>97.0</ele><time>2026-04-03T10:29:45.275Z</time></trkpt><trkpt lat="45.2126317" lon="8.844535"><ele>97.0</ele><time>2026-04-03T10:29:46.276Z</time></trkpt><trkpt lat="45.2126633" lon="8.8446883"><ele>97.0</ele><time>2026-04-03T10:29:48.276Z</time></trkpt><trkpt lat="45.2126933" lon="8.844845"><ele>97.0</ele><time>2026-04-03T10:29:50.275Z</time></trkpt><trkpt lat="45.2127233" lon="8.8450033"><ele>97.0</ele><time>2026-04-03T10:29:52.275Z</time></trkpt><trkpt lat="45.2127483" lon="8.8451583"><ele>97.16666666666667</ele><time>2026-04-03T10:29:54.276Z</time></trkpt><trkpt lat="45.21275" lon="8.84528"><ele>97.33333333333334</ele><time>2026-04-03T10:29:56.276Z</time></trkpt><trkpt lat="45.212745" lon="8.845395"><ele>97.5</ele><time>2026-04-03T10:29:59.276Z</time></trkpt><trkpt lat="45.21274" lon="8.8455117"><ele>97.66666666666666</ele><time>2026-04-03T10:30:02.276Z</time></trkpt><trkpt lat="45.21273" lon="8.845635"><ele>97.83333333333333</ele><time>2026-04-03T10:30:05.275Z</time></trkpt><trkpt lat="45.2126633" lon="8.8456217"><ele>98.0</ele><time>2026-04-03T10:30:29.276Z</time></trkpt><trkpt lat="45.2127094" lon="8.8456887"><ele>98.0</ele><time>2026-04-03T10:30:54.495Z</time></trkpt><trkpt lat="45.2127509" lon="8.8458181"><ele>98.0</ele><time>2026-04-03T10:31:32.013Z</time></trkpt><trkpt lat="45.2127618" lon="8.8460638"><ele>98.0</ele><time>2026-04-03T10:31:34.275Z</time></trkpt><trkpt lat="45.212765" lon="8.8461596"><ele>98.0</ele><time>2026-04-03T10:31:35.276Z</time></trkpt><trkpt lat="45.2127675" lon="8.8462523"><ele>98.0</ele><time>2026-04-03T10:31:36.276Z</time></trkpt><trkpt lat="45.2127709" lon="8.8463458"><ele>98.2</ele><time>2026-04-03T10:31:37.276Z</time></trkpt><trkpt lat="45.212775" lon="8.8464417"><ele>98.4</ele><time>2026-04-03T10:31:38.276Z</time></trkpt><trkpt lat="45.2127783" lon="8.8466017"><ele>98.60000000000001</ele><time>2026-04-03T10:31:40.277Z</time></trkpt><trkpt lat="45.2127717" lon="8.8467717"><ele>98.80000000000001</ele><time>2026-04-03T10:31:42.276Z</time></trkpt><trkpt lat="45.2127667" lon="8.8469367"><ele>99.0</ele><time>2026-04-03T10:31:44.276Z</time></trkpt><trkpt lat="45.2127683" lon="8.8470967"><ele>99.0</ele><time>2026-04-03T10:31:46.277Z</time></trkpt><trkpt lat="45.2127783" lon="8.8472533"><ele>99.0</ele><time>2026-04-03T10:31:48.277Z</time></trkpt><trkpt lat="45.2128" lon="8.8474033"><ele>99.0</ele><time>2026-04-03T10:31:50.276Z</time></trkpt><trkpt lat="45.2128183" lon="8.84756"><ele>99.0</ele><time>2026-04-03T10:31:52.277Z</time></trkpt><trkpt lat="45.212815" lon="8.847725"><ele>99.0</ele><time>2026-04-03T10:31:54.277Z</time></trkpt><trkpt lat="45.2127983" lon="8.8479017"><ele>98.85714285714286</ele><time>2026-04-03T10:31:56.277Z</time></trkpt><trkpt lat="45.212795" lon="8.8479967"><ele>98.71428571428571</ele><time>2026-04-03T10:31:57.277Z</time></trkpt><trkpt lat="45.2127933" lon="8.8481017"><ele>98.57142857142857</ele><time>2026-04-03T10:31:58.277Z</time></trkpt><trkpt lat="45.212795" lon="8.84821"><ele>98.42857142857143</ele><time>2026-04-03T10:31:59.277Z</time></trkpt><trkpt lat="45.2127933" lon="8.8483183"><ele>98.28571428571428</ele><time>2026-04-03T10:32:00.277Z</time></trkpt><trkpt lat="45.2127917" lon="8.8484217"><ele>98.14285714285714</ele><time>2026-04-03T10:32:01.277Z</time></trkpt><trkpt lat="45.21279" lon="8.8485167"><ele>98.0</ele><time>2026-04-03T10:32:02.277Z</time></trkpt><trkpt lat="45.2127933" lon="8.8486067"><ele>97.83333333333333</ele><time>2026-04-03T10:32:03.277Z</time></trkpt><trkpt lat="45.2128017" lon="8.8487867"><ele>97.66666666666666</ele><time>2026-04-03T10:32:05.276Z</time></trkpt><trkpt lat="45.212805" lon="8.848885"><ele>97.5</ele><time>2026-04-03T10:32:06.276Z</time></trkpt><trkpt lat="45.2128033" lon="8.84898"><ele>97.33333333333334</ele><time>2026-04-03T10:32:07.277Z</time></trkpt><trkpt lat="45.2128017" lon="8.84907"><ele>97.16666666666667</ele><time>2026-04-03T10:32:08.276Z</time></trkpt><trkpt lat="45.2127967" lon="8.849235"><ele>97.0</ele><time>2026-04-03T10:32:10.276Z</time></trkpt><trkpt lat="45.212785" lon="8.8493967"><ele>96.8</ele><time>2026-04-03T10:32:12.276Z</time></trkpt><trkpt lat="45.2127733" lon="8.8495517"><ele>96.6</ele><time>2026-04-03T10:32:14.276Z</time></trkpt><trkpt lat="45.212765" lon="8.84969"><ele>96.39999999999999</ele><time>2026-04-03T10:32:16.277Z</time></trkpt><trkpt lat="45.2127683" lon="8.849815"><ele>96.19999999999999</ele><time>2026-04-03T10:32:18.277Z</time></trkpt><trkpt lat="45.2127683" lon="8.849935"><ele>96.0</ele><time>2026-04-03T10:32:20.276Z</time></trkpt><trkpt lat="45.2127583" lon="8.85004"><ele>96.19999999999999</ele><time>2026-04-03T10:32:22.277Z</time></trkpt><trkpt lat="45.212755" lon="8.8502183"><ele>96.39999999999999</ele><time>2026-04-03T10:32:35.276Z</time></trkpt><trkpt lat="45.212745" lon="8.85033"><ele>96.6</ele><time>2026-04-03T10:32:39.276Z</time></trkpt><trkpt lat="45.2127383" lon="8.8504683"><ele>96.8</ele><time>2026-04-03T10:32:42.277Z</time></trkpt><trkpt lat="45.2127267" lon="8.8505983"><ele>97.0</ele><time>2026-04-03T10:32:44.276Z</time></trkpt><trkpt lat="45.21272" lon="8.8507433"><ele>97.0</ele><time>2026-04-03T10:32:46.276Z</time></trkpt><trkpt lat="45.2127033" lon="8.850885"><ele>97.0</ele><time>2026-04-03T10:32:48.277Z</time></trkpt><trkpt lat="45.212685" lon="8.8510433"><ele>97.0</ele><time>2026-04-03T10:32:50.276Z</time></trkpt><trkpt lat="45.212665" lon="8.851215"><ele>97.0</ele><time>2026-04-03T10:32:52.277Z</time></trkpt><trkpt lat="45.2126533" lon="8.851315"><ele>97.0</ele><time>2026-04-03T10:32:53.276Z</time></trkpt><trkpt lat="45.2126433" lon="8.851425"><ele>96.8</ele><time>2026-04-03T10:32:54.277Z</time></trkpt><trkpt lat="45.2126333" lon="8.851545"><ele>96.6</ele><time>2026-04-03T10:32:55.277Z</time></trkpt><trkpt lat="45.212625" lon="8.8516767"><ele>96.39999999999999</ele><time>2026-04-03T10:32:56.276Z</time></trkpt><trkpt lat="45.2126167" lon="8.8518217"><ele>96.19999999999999</ele><time>2026-04-03T10:32:57.276Z</time></trkpt><trkpt lat="45.21261" lon="8.8519767"><ele>96.0</ele><time>2026-04-03T10:32:58.277Z</time></trkpt><trkpt lat="45.2126033" lon="8.8521367"><ele>96.0</ele><time>2026-04-03T10:32:59.277Z</time></trkpt><trkpt lat="45.2125967" lon="8.8523033"><ele>96.0</ele><time>2026-04-03T10:33:00.277Z</time></trkpt><trkpt lat="45.21259" lon="8.852475"><ele>96.0</ele><time>2026-04-03T10:33:01.277Z</time></trkpt><trkpt lat="45.2125833" lon="8.852645"><ele>96.0</ele><time>2026-04-03T10:33:02.276Z</time></trkpt><trkpt lat="45.21258" lon="8.85281"><ele>96.0</ele><time>2026-04-03T10:33:03.277Z</time></trkpt><trkpt lat="45.212575" lon="8.8529717"><ele>96.0</ele><time>2026-04-03T10:33:04.276Z</time></trkpt><trkpt lat="45.2125683" lon="8.8531333"><ele>96.0</ele><time>2026-04-03T10:33:05.277Z</time></trkpt><trkpt lat="45.2125567" lon="8.8532883"><ele>96.0</ele><time>2026-04-03T10:33:06.276Z</time></trkpt><trkpt lat="45.212545" lon="8.85344"><ele>96.0</ele><time>2026-04-03T10:33:07.277Z</time></trkpt><trkpt lat="45.21254" lon="8.8535883"><ele>96.19999999999999</ele><time>2026-04-03T10:33:08.277Z</time></trkpt><trkpt lat="45.2125383" lon="8.8537333"><ele>96.39999999999999</ele><time>2026-04-03T10:33:09.276Z</time></trkpt><trkpt lat="45.21254" lon="8.8538817"><ele>96.6</ele><time>2026-04-03T10:33:10.276Z</time></trkpt><trkpt lat="45.21254" lon="8.854035"><ele>96.8</ele><time>2026-04-03T10:33:11.276Z</time></trkpt><trkpt lat="45.2125417" lon="8.8541833"><ele>97.0</ele><time>2026-04-03T10:33:12.277Z</time></trkpt><trkpt lat="45.2125417" lon="8.8543217"><ele>97.0</ele><time>2026-04-03T10:33:13.277Z</time></trkpt><trkpt lat="45.2125467" lon="8.8544617"><ele>97.0</ele><time>2026-04-03T10:33:14.276Z</time></trkpt><trkpt lat="45.21255" lon="8.854605"><ele>97.0</ele><time>2026-04-03T10:33:15.276Z</time></trkpt><trkpt lat="45.212555" lon="8.8547483"><ele>97.0</ele><time>2026-04-03T10:33:16.276Z</time></trkpt><trkpt lat="45.2125567" lon="8.85488"><ele>97.0</ele><time>2026-04-03T10:33:17.276Z</time></trkpt><trkpt lat="45.2125567" lon="8.855"><ele>97.00000000000001</ele><time>2026-04-03T10:33:18.276Z</time></trkpt><trkpt lat="45.212555" lon="8.8551133"><ele>97.0</ele><time>2026-04-03T10:33:19.277Z</time></trkpt><trkpt lat="45.21255" lon="8.8552267"><ele>97.0</ele><time>2026-04-03T10:33:20.276Z</time></trkpt><trkpt lat="45.2125467" lon="8.8553433"><ele>97.0</ele><time>2026-04-03T10:33:21.277Z</time></trkpt><trkpt lat="45.2125467" lon="8.855465"><ele>97.00000000000001</ele><time>2026-04-03T10:33:22.276Z</time></trkpt><trkpt lat="45.2125467" lon="8.855595"><ele>97.0</ele><time>2026-04-03T10:33:23.276Z</time></trkpt><trkpt lat="45.2125433" lon="8.855725"><ele>97.16666666666667</ele><time>2026-04-03T10:33:24.277Z</time></trkpt><trkpt lat="45.2125417" lon="8.8558367"><ele>97.33333333333334</ele><time>2026-04-03T10:33:25.277Z</time></trkpt><trkpt lat="45.2125283" lon="8.8559683"><ele>97.5</ele><time>2026-04-03T10:33:27.276Z</time></trkpt><trkpt lat="45.2124683" lon="8.8560517"><ele>97.66666666666666</ele><time>2026-04-03T10:33:30.276Z</time></trkpt><trkpt lat="45.2123817" lon="8.8560633"><ele>97.83333333333333</ele><time>2026-04-03T10:33:32.276Z</time></trkpt><trkpt lat="45.2123083" lon="8.8560583"><ele>98.0</ele><time>2026-04-03T10:33:33.277Z</time></trkpt><trkpt lat="45.2122117" lon="8.85606"><ele>98.25</ele><time>2026-04-03T10:33:34.276Z</time></trkpt><trkpt lat="45.2120917" lon="8.8560633"><ele>98.5</ele><time>2026-04-03T10:33:35.276Z</time></trkpt><trkpt lat="45.2119567" lon="8.8560667"><ele>98.75</ele><time>2026-04-03T10:33:36.277Z</time></trkpt><trkpt lat="45.2118133" lon="8.8560717"><ele>99.0</ele><time>2026-04-03T10:33:37.276Z</time></trkpt><trkpt lat="45.21166" lon="8.85608"><ele>99.0</ele><time>2026-04-03T10:33:38.277Z</time></trkpt><trkpt lat="45.211505" lon="8.8560933"><ele>99.0</ele><time>2026-04-03T10:33:39.277Z</time></trkpt><trkpt lat="45.2113483" lon="8.85611"><ele>99.0</ele><time>2026-04-03T10:33:40.277Z</time></trkpt><trkpt lat="45.211195" lon="8.85613"><ele>99.0</ele><time>2026-04-03T10:33:41.276Z</time></trkpt><trkpt lat="45.2110433" lon="8.85615"><ele>99.0</ele><time>2026-04-03T10:33:42.277Z</time></trkpt><trkpt lat="45.2108917" lon="8.8561733"><ele>99.0</ele><time>2026-04-03T10:33:43.276Z</time></trkpt><trkpt lat="45.2107417" lon="8.856195"><ele>98.5</ele><time>2026-04-03T10:33:44.277Z</time></trkpt><trkpt lat="45.2106017" lon="8.8562167"><ele>98.0</ele><time>2026-04-03T10:33:45.277Z</time></trkpt><trkpt lat="45.2104717" lon="8.856235"><ele>97.5</ele><time>2026-04-03T10:33:46.276Z</time></trkpt><trkpt lat="45.2103617" lon="8.8562517"><ele>97.0</ele><time>2026-04-03T10:33:47.277Z</time></trkpt><trkpt lat="45.2102683" lon="8.8562717"><ele>97.0</ele><time>2026-04-03T10:33:48.276Z</time></trkpt><trkpt lat="45.2101933" lon="8.856305"><ele>97.0</ele><time>2026-04-03T10:33:49.276Z</time></trkpt><trkpt lat="45.2101367" lon="8.8563467"><ele>97.0</ele><time>2026-04-03T10:33:50.277Z</time></trkpt><trkpt lat="45.2100817" lon="8.8565133"><ele>97.0</ele><time>2026-04-03T10:33:52.277Z</time></trkpt><trkpt lat="45.2100767" lon="8.8566467"><ele>97.0</ele><time>2026-04-03T10:33:53.276Z</time></trkpt><trkpt lat="45.210075" lon="8.8568133"><ele>97.39999999999999</ele><time>2026-04-03T10:33:54.276Z</time></trkpt><trkpt lat="45.210075" lon="8.8569867"><ele>97.8</ele><time>2026-04-03T10:33:55.276Z</time></trkpt><trkpt lat="45.210075" lon="8.8571517"><ele>98.2</ele><time>2026-04-03T10:33:56.276Z</time></trkpt><trkpt lat="45.2100767" lon="8.8573"><ele>98.6</ele><time>2026-04-03T10:33:57.277Z</time></trkpt><trkpt lat="45.2100733" lon="8.8574283"><ele>99.0</ele><time>2026-04-03T10:33:58.277Z</time></trkpt><trkpt lat="45.2100583" lon="8.8575333"><ele>99.0</ele><time>2026-04-03T10:33:59.277Z</time></trkpt><trkpt lat="45.2100217" lon="8.85761"><ele>99.0</ele><time>2026-04-03T10:34:00.277Z</time></trkpt><trkpt lat="45.2099617" lon="8.85765"><ele>99.0</ele><time>2026-04-03T10:34:01.276Z</time></trkpt><trkpt lat="45.20988" lon="8.8576633"><ele>99.0</ele><time>2026-04-03T10:34:02.276Z</time></trkpt><trkpt lat="45.2097767" lon="8.8576617"><ele>99.0</ele><time>2026-04-03T10:34:03.277Z</time></trkpt><trkpt lat="45.2096633" lon="8.8576633"><ele>99.0</ele><time>2026-04-03T10:34:04.277Z</time></trkpt><trkpt lat="45.2095383" lon="8.85767"><ele>99.25</ele><time>2026-04-03T10:34:05.277Z</time></trkpt><trkpt lat="45.2094117" lon="8.8576817"><ele>99.5</ele><time>2026-04-03T10:34:06.276Z</time></trkpt><trkpt lat="45.209285" lon="8.8576933"><ele>99.75</ele><time>2026-04-03T10:34:07.276Z</time></trkpt><trkpt lat="45.2091633" lon="8.857705"><ele>100.0</ele><time>2026-04-03T10:34:08.276Z</time></trkpt><trkpt lat="45.2090417" lon="8.857715"><ele>100.0</ele><time>2026-04-03T10:34:09.277Z</time></trkpt><trkpt lat="45.2089283" lon="8.8577233"><ele>100.0</ele><time>2026-04-03T10:34:10.276Z</time></trkpt><trkpt lat="45.2088233" lon="8.8577283"><ele>100.0</ele><time>2026-04-03T10:34:11.276Z</time></trkpt><trkpt lat="45.2087283" lon="8.8577283"><ele>100.0</ele><time>2026-04-03T10:34:12.277Z</time></trkpt><trkpt lat="45.2086417" lon="8.8577167"><ele>100.0</ele><time>2026-04-03T10:34:13.277Z</time></trkpt><trkpt lat="45.208565" lon="8.85769"><ele>100.00000000000001</ele><time>2026-04-03T10:34:14.277Z</time></trkpt><trkpt lat="45.2084983" lon="8.8576517"><ele>100.0</ele><time>2026-04-03T10:34:15.276Z</time></trkpt><trkpt lat="45.2084017" lon="8.8575817"><ele>100.0</ele><time>2026-04-03T10:34:17.277Z</time></trkpt><trkpt lat="45.2083367" lon="8.857555"><ele>100.0</ele><time>2026-04-03T10:34:20.276Z</time></trkpt><trkpt lat="45.2082867" lon="8.8576333"><ele>100.00000000000001</ele><time>2026-04-03T10:34:23.276Z</time></trkpt><trkpt lat="45.2082767" lon="8.857795"><ele>100.0</ele><time>2026-04-03T10:34:25.277Z</time></trkpt><trkpt lat="45.2082667" lon="8.8579067"><ele>100.0</ele><time>2026-04-03T10:34:26.276Z</time></trkpt><trkpt lat="45.20825" lon="8.8580333"><ele>100.0</ele><time>2026-04-03T10:34:27.277Z</time></trkpt><trkpt lat="45.208235" lon="8.85817"><ele>100.0</ele><time>2026-04-03T10:34:28.276Z</time></trkpt><trkpt lat="45.2082217" lon="8.8583233"><ele>100.0</ele><time>2026-04-03T10:34:29.277Z</time></trkpt><trkpt lat="45.2082083" lon="8.858485"><ele>100.0</ele><time>2026-04-03T10:34:30.277Z</time></trkpt><trkpt lat="45.208195" lon="8.8586417"><ele>99.8</ele><time>2026-04-03T10:34:31.276Z</time></trkpt><trkpt lat="45.20818" lon="8.8587983"><ele>99.6</ele><time>2026-04-03T10:34:32.277Z</time></trkpt><trkpt lat="45.208165" lon="8.8589467"><ele>99.4</ele><time>2026-04-03T10:34:33.277Z</time></trkpt><trkpt lat="45.20815" lon="8.859085"><ele>99.2</ele><time>2026-04-03T10:34:34.277Z</time></trkpt><trkpt lat="45.2081383" lon="8.8592117"><ele>99.0</ele><time>2026-04-03T10:34:35.277Z</time></trkpt><trkpt lat="45.2081317" lon="8.8593217"><ele>95.0</ele><time>2026-04-03T10:34:36.276Z</time></trkpt><trkpt lat="45.208125" lon="8.8594183"><ele>95.0</ele><time>2026-04-03T10:34:37.277Z</time></trkpt><trkpt lat="45.2081133" lon="8.8595767"><ele>95.0</ele><time>2026-04-03T10:34:39.276Z</time></trkpt></trkseg></trk></gpx>